Data for 05/13/2007

Time Sea-Level Adjusted Pressure Absolute Pressure Temperature Relative Humidity Dew Point Precipitation   
(mb) (inHg) (mb) (inHg) (C) (F) (%) (C) (F) (mm) (in)
00:01 1016 30 845 24.95 11.3 52.4 54 2.5 36.5 0
00:02 1016 30 845 24.95 11.3 52.4 55 2.6 36.6 0
00:03 1016 30 846 24.98 11.5 52.6 54 2.6 36.6 0
00:04 1016 30 846 24.98 11.6 52.9 53 2.3 36.1 0
00:05 1016 30 846 24.98 11.8 53.2 52 2.3 36.2 0
00:06 1016 30 846 24.98 12 53.5 52 2.5 36.4 0
00:07 1016 30 846 24.98 12.1 53.8 52 2.6 36.8 0
00:08 1016 30 846 24.98 12.2 53.9 52 2.5 36.6 0
00:09 1016 30 846 24.98 12.2 54 52 2.6 36.7 0
00:10 1016 30 846 24.98 12.2 54 52 2.8 37 0
00:11 1017 30.03 846 24.98 12.1 53.8 53 2.8 37.1 0
00:12 1017 30.03 846 24.98 11.8 53.3 54 2.8 37 0
00:13 1017 30.03 846 24.98 11.7 53 55 2.9 37.3 0
00:14 1017 30.03 846 24.98 11.4 52.6 56 3 37.5 0
00:15 1017 30.03 846 24.98 11.2 52.2 56 2.8 37 0
00:16 1017 30.03 846 24.98 11.2 52.1 57 2.9 37.3 0
00:17 1017 30.03 846 24.98 11.1 51.9 57 2.9 37.2 0
00:18 1017 30.03 846 24.98 11.1 51.9 57 2.9 37.2 0
00:19 1017 30.03 846 24.98 11.1 52 57 2.9 37.2 0
00:20 1017 30.03 846 24.98 11.2 52.2 57 3 37.4 0
00:21 1017 30.03 846 24.98 11.3 52.3 57 3.2 37.7 0
00:22 1017 30.03 846 24.98 11.3 52.3 59 3.5 38.3 0
00:23 1017 30.03 846 24.98 11.2 52.2 58 3.2 37.8 0
00:24 1017 30.03 846 24.98 11.3 52.3 58 3.4 38 0
00:25 1017 30.03 846 24.98 11.3 52.3 58 3.3 38 0
00:26 1017 30.03 846 24.98 11.4 52.4 58 3.4 38.2 0
00:27 1017 30.03 846 24.98 11.5 52.6 58 3.6 38.4 0
00:28 1017 30.03 846 24.98 11.5 52.7 58 3.7 38.6 0
00:29 1017 30.03 846 24.98 11.6 52.9 57 3.4 38.2 0
00:30 1017 30.03 846 24.98 11.8 53.2 56 3.4 38.2 0
00:31 1017 30.03 846 24.98 11.9 53.4 56 3.5 38.3 0
00:32 1017 30.03 846 24.98 11.9 53.5 57 3.7 38.6 0
00:33 1017 30.03 846 24.98 11.9 53.4 57 3.7 38.6 0
00:34 1017 30.03 846 24.98 11.9 53.5 57 3.8 38.8 0
00:35 1017 30.03 846 24.98 11.9 53.5 57 3.6 38.5 0
00:36 1017 30.03 846 24.98 12 53.5 57 3.7 38.6 0
00:37 1017 30.03 846 24.98 12 53.6 58 3.9 39.1 0
00:38 1017 30.03 846 24.98 11.8 53.3 59 4 39.3 0
00:39 1017 30.03 846 24.98 11.7 53.1 59 4.1 39.4 0
00:40 1017 30.03 846 24.98 11.6 52.8 60 4.1 39.4 0
00:41 1017 30.03 846 24.98 11.5 52.7 60 4.2 39.5 0
00:42 1017 30.03 846 24.98 11.5 52.6 60 4 39.3 0
00:43 1017 30.03 846 24.98 11.4 52.5 61 4.1 39.4 0
00:44 1017 30.03 846 24.98 11.3 52.3 61 4 39.2 0
00:45 1017 30.03 846 24.98 11.2 52.2 61 4 39.3 0
00:46 1017 30.03 846 24.98 11.2 52.1 61 4.1 39.4 0
00:47 1017 30.03 846 24.98 11.1 52 62 4.1 39.3 0
00:48 1017 30.03 846 24.98 11.1 51.9 61 3.9 39 0
00:49 1017 30.03 846 24.98 11.1 52 61 3.9 39.1 0
00:50 1017 30.03 846 24.98 11.2 52.1 61 3.9 39 0
00:51 1017 30.03 846 24.98 11.3 52.3 61 4 39.2 0
00:52 1017 30.03 846 24.98 11.3 52.4 60 4 39.1 0
00:53 1017 30.03 846 24.98 11.4 52.5 60 4 39.3 0
00:54 1017 30.03 846 24.98 11.4 52.5 60 4 39.2 0
00:55 1017 30.03 846 24.98 11.5 52.6 60 4 39.2 0
00:56 1017 30.03 846 24.98 11.5 52.7 61 4.3 39.7 0
00:57 1017 30.03 846 24.98 11.4 52.4 61 4.3 39.7 0
00:58 1017 30.03 846 24.98 11.3 52.4 60 4 39.1 0
00:59 1017 30.03 846 24.98 11.3 52.4 61 4 39.2 0
01:00 1017 30.03 846 24.98 11.3 52.3 61 4.1 39.5 0
01:01 1017 30.03 846 24.98 11.2 52.1 62 4.3 39.7 0
01:02 1017 30.03 846 24.98 11 51.8 63 4.3 39.7 0
01:03 1017 30.03 846 24.98 10.9 51.6 63 4.3 39.7 0
01:04 1017 30.03 846 24.98 10.8 51.4 63 4.1 39.4 0
01:05 1017 30.03 846 24.98 10.8 51.4 63 4.1 39.3 0
01:06 1017 30.03 846 24.98 10.9 51.6 62 4 39.1 0
01:07 1017 30.03 846 24.98 11 51.7 61 3.8 38.9 0
01:08 1017 30.03 846 24.98 11.1 52 61 3.9 39 0
01:09 1017 30.03 846 24.98 11.3 52.3 60 4 39.1 0
01:10 1017 30.03 846 24.98 11.4 52.5 60 3.9 39.1 0
01:11 1017 30.03 846 24.98 11.5 52.8 59 3.9 39.1 0
01:12 1017 30.03 846 24.98 11.8 53.2 58 3.9 39.1 0
01:13 1017 30.03 846 24.98 11.9 53.5 58 4 39.2 0
01:14 1017 30.03 846 24.98 12 53.6 58 4 39.2 0
01:15 1017 30.03 846 24.98 12.1 53.8 58 4.1 39.4 0
01:16 1017 30.03 846 24.98 12.2 53.9 57 4 39.1 0
01:17 1017 30.03 846 24.98 12.3 54.1 57 4 39.2 0
01:18 1017 30.03 846 24.98 12.4 54.2 57 4.1 39.4 0
01:19 1017 30.03 846 24.98 12.4 54.3 56 4 39.2 0
01:20 1017 30.03 846 24.98 12.5 54.6 56 4.1 39.4 0
01:21 1017 30.03 846 24.98 12.6 54.7 56 4.1 39.4 0
01:22 1017 30.03 846 24.98 12.6 54.7 56 4.2 39.5 0
01:23 1017 30.03 846 24.98 12.5 54.5 56 4.1 39.4 0
01:24 1017 30.03 846 24.98 12.5 54.4 56 3.9 39 0
01:25 1017 30.03 846 24.98 12.4 54.2 56 4 39.2 0
01:26 1017 30.03 846 24.98 12.3 54.2 56 3.9 39 0
01:27 1017 30.03 846 24.98 12.3 54.1 56 3.9 39 0
01:28 1017 30.03 846 24.98 12.3 54.1 57 4 39.1 0
01:29 1017 30.03 846 24.98 12.3 54.1 57 4.1 39.3 0
01:30 1017 30.03 846 24.98 12.3 54.1 57 4 39.2 0
01:31 1017 30.03 846 24.98 12.3 54.1 57 4.1 39.3 0
01:32 1017 30.03 846 24.98 12.1 53.9 58 4.2 39.6 0
01:33 1017 30.03 847 25.01 11.9 53.4 59 4.3 39.7 0
01:34 1017 30.03 846 24.98 11.7 53.1 60 4.2 39.5 0
01:35 1017 30.03 846 24.98 11.6 52.8 60 4.1 39.4 0
01:36 1017 30.03 846 24.98 11.5 52.7 60 4.1 39.3 0
01:37 1017 30.03 846 24.98 11.5 52.6 60 4.1 39.3 0
01:38 1017 30.03 846 24.98 11.4 52.4 60 4 39.1 0
01:39 1017 30.03 846 24.98 11.3 52.4 61 4 39.2 0
01:40 1017 30.03 846 24.98 11.3 52.3 60 3.9 39 0
01:41 1017 30.03 846 24.98 11.3 52.4 60 3.9 39.1 0
01:42 1017 30.03 846 24.98 11.3 52.4 61 4.1 39.3 0
01:43 1017 30.03 846 24.98 11.3 52.3 60 4 39.1 0
01:44 1017 30.03 846 24.98 11.2 52.2 62 4.2 39.5 0
01:45 1017 30.03 846 24.98 11.1 52 63 4.3 39.8 0
01:46 1017 30.03 847 25.01 10.9 51.6 64 4.4 39.9 0
01:47 1017 30.03 847 25.01 10.7 51.2 65 4.3 39.7 0
01:48 1017 30.03 847 25.01 10.5 50.9 64 4.1 39.4 0
01:49 1017 30.03 847 25.01 10.5 50.9 65 4.1 39.4 0
01:50 1017 30.03 847 25.01 10.5 50.8 64 4.1 39.3 0
01:51 1017 30.03 847 25.01 10.5 50.9 64 4 39.3 0
01:52 1017 30.03 847 25.01 10.5 50.9 64 3.9 39.1 0
01:53 1017 30.03 847 25.01 10.6 51.2 62 3.8 38.8 0
01:54 1017 30.03 847 25.01 10.8 51.5 62 3.9 39.1 0
01:55 1017 30.03 847 25.01 10.9 51.7 62 3.9 39.1 0
01:56 1017 30.03 847 25.01 11 51.7 62 3.9 39.1 0
01:57 1017 30.03 847 25.01 11 51.8 61 3.9 39.1 0
01:58 1017 30.03 847 25.01 11 51.9 61 3.9 39.1 0
01:59 1017 30.03 847 25.01 11 51.8 62 4.1 39.3 0
02:00 1017 30.03 847 25.01 10.9 51.6 62 4 39.2 0
02:01 1017 30.03 847 25.01 10.8 51.5 61 3.6 38.6 0
02:02 1017 30.03 847 25.01 10.9 51.7 61 3.7 38.6 0
02:03 1017 30.03 847 25.01 11 51.9 61 3.7 38.7 0
02:04 1017 30.03 847 25.01 11 51.8 61 3.9 39 0
02:05 1017 30.03 847 25.01 10.9 51.6 61 3.8 38.9 0
02:06 1017 30.03 847 25.01 10.9 51.5 61 3.8 38.8 0
02:07 1017 30.03 847 25.01 10.9 51.7 61 3.7 38.7 0
02:08 1017 30.03 847 25.01 10.9 51.7 61 3.7 38.7 0
02:09 1017 30.03 847 25.01 11 51.7 61 3.8 38.9 0
02:10 1017 30.03 847 25.01 11 51.8 60 3.6 38.4 0
02:11 1017 30.03 847 25.01 11.3 52.3 59 3.6 38.4 0
02:12 1017 30.03 847 25.01 11.5 52.7 59 3.7 38.7 0
02:13 1017 30.03 847 25.01 11.5 52.7 59 3.8 38.8 0
02:14 1017 30.03 847 25.01 11.4 52.4 60 3.9 39 0
02:15 1017 30.03 847 25.01 11.2 52.2 60 3.8 38.8 0
02:16 1017 30.03 847 25.01 11.2 52.1 60 3.7 38.7 0
02:17 1017 30.03 847 25.01 11.3 52.3 60 3.7 38.7 0
02:18 1017 30.03 847 25.01 11.2 52.2 61 3.9 39.1 0
02:19 1017 30.03 847 25.01 11.1 51.9 61 3.9 39 0
02:20 1017 30.03 847 25.01 10.9 51.7 62 3.9 39 0
02:21 1017 30.03 847 25.01 10.7 51.3 63 4.1 39.4 0
02:22 1017 30.03 847 25.01 10.5 50.9 64 3.9 39.1 0
02:23 1017 30.03 847 25.01 10.4 50.7 64 3.9 39 0
02:24 1017 30.03 847 25.01 10.5 50.8 63 3.7 38.6 0
02:25 1017 30.03 847 25.01 10.6 51.1 62 3.7 38.7 0
02:26 1017 30.03 847 25.01 10.8 51.4 60 3.4 38.1 0
02:27 1017 30.03 847 25.01 11.1 52 60 3.6 38.5 0
02:28 1017 30.03 847 25.01 11.1 52 61 3.8 38.9 0
02:29 1017 30.03 847 25.01 11 51.8 61 3.7 38.7 0
02:30 1017 30.03 847 25.01 11 51.8 61 3.7 38.7 0
02:31 1017 30.03 847 25.01 10.9 51.7 61 3.8 38.9 0
02:32 1017 30.03 847 25.01 10.7 51.3 63 4.1 39.3 0
02:33 1017 30.03 846 24.98 10.3 50.6 66 4.2 39.5 0
02:34 1017 30.03 846 24.98 9.9 49.7 67 4.1 39.4 0
02:35 1017 30.03 846 24.98 9.6 49.2 67 3.8 38.9 0
02:36 1017 30.03 846 24.98 9.5 49 69 4 39.2 0
02:37 1017 30.03 846 24.98 9.1 48.4 71 4 39.3 0
02:38 1017 30.03 846 24.98 8.8 47.9 71 3.8 38.9 0
02:39 1017 30.03 847 25.01 8.9 48 71 3.9 39 0
02:40 1017 30.03 847 25.01 8.8 47.8 71 3.9 39 0
02:41 1017 30.03 847 25.01 8.6 47.5 72 3.8 38.9 0
02:42 1017 30.03 847 25.01 8.7 47.6 72 3.8 38.9 0
02:43 1017 30.03 847 25.01 8.6 47.5 72 3.9 39 0
02:44 1017 30.03 847 25.01 8.5 47.3 73 3.9 39.1 0
02:45 1017 30.03 847 25.01 8.4 47 73 3.8 38.9 0
02:46 1017 30.03 847 25.01 8.3 47 74 3.9 39.1 0
02:47 1017 30.03 847 25.01 8.1 46.5 75 3.9 39 0
02:48 1017 30.03 847 25.01 7.9 46.2 75 3.8 38.8 0
02:49 1017 30.03 847 25.01 7.7 45.9 76 3.7 38.7 0
02:50 1017 30.03 847 25.01 7.6 45.7 76 3.7 38.7 0
02:51 1017 30.03 847 25.01 7.6 45.7 76 3.7 38.7 0
02:52 1017 30.03 847 25.01 7.6 45.6 77 3.8 38.8 0
02:53 1017 30.03 847 25.01 7.4 45.4 77 3.7 38.7 0
02:54 1017 30.03 847 25.01 7.4 45.3 77 3.7 38.6 0
02:55 1017 30.03 847 25.01 7.4 45.3 77 3.7 38.6 0
02:56 1017 30.03 847 25.01 7.5 45.5 77 3.7 38.6 0
02:57 1017 30.03 847 25.01 7.4 45.4 77 3.7 38.6 0
02:58 1017 30.03 847 25.01 7.4 45.3 77 3.7 38.6 0
02:59 1017 30.03 847 25.01 7.3 45.2 77 3.6 38.5 0
03:00 1017 30.03 847 25.01 7.5 45.5 76 3.6 38.4 0
03:01 1017 30.03 847 25.01 7.7 45.8 76 3.7 38.6 0
03:02 1017 30.03 847 25.01 7.7 45.9 76 3.8 38.9 0
03:03 1017 30.03 847 25.01 7.6 45.7 76 3.7 38.7 0
03:04 1017 30.03 847 25.01 7.5 45.5 77 3.7 38.7 0
03:05 1017 30.03 847 25.01 7.4 45.3 78 3.7 38.7 0
03:06 1017 30.03 847 25.01 7.3 45.2 78 3.7 38.6 0
03:07 1017 30.03 847 25.01 7.3 45.2 78 3.7 38.6 0
03:08 1017 30.03 847 25.01 7.3 45.2 78 3.7 38.7 0
03:09 1017 30.03 847 25.01 7.3 45.1 78 3.7 38.6 0
03:10 1017 30.03 847 25.01 7.3 45.1 77 3.6 38.4 0
03:11 1017 30.03 847 25.01 7.4 45.3 77 3.6 38.4 0
03:12 1017 30.03 847 25.01 7.5 45.5 76 3.5 38.4 0
03:13 1017 30.03 847 25.01 7.6 45.8 76 3.6 38.5 0
03:14 1017 30.03 847 25.01 7.8 46 75 3.7 38.6 0
03:15 1017 30.03 847 25.01 7.9 46.2 75 3.7 38.6 0
03:16 1017 30.03 847 25.01 8 46.3 75 3.8 38.8 0
03:17 1017 30.03 846 24.98 8 46.5 75 3.8 38.9 0
03:18 1017 30.03 846 24.98 8 46.4 75 3.8 38.8 0
03:19 1017 30.03 847 25.01 8 46.5 75 3.8 38.9 0
03:20 1017 30.03 847 25.01 8.1 46.5 74 3.8 38.8 0
03:21 1017 30.03 847 25.01 8.1 46.6 74 3.8 38.9 0
03:22 1017 30.03 847 25.01 8.2 46.7 74 3.8 38.8 0
03:23 1017 30.03 847 25.01 8.2 46.8 74 3.8 38.8 0
03:24 1017 30.03 847 25.01 8.2 46.7 74 3.8 38.9 0
03:25 1017 30.03 846 24.98 8.1 46.5 75 3.9 39 0
03:26 1017 30.03 846 24.98 7.9 46.3 75 3.8 38.9 0
03:27 1017 30.03 846 24.98 7.8 46 76 3.8 38.8 0
03:28 1017 30.03 847 25.01 7.7 45.8 77 3.8 38.9 0
03:29 1017 30.03 847 25.01 7.5 45.4 77 3.8 38.8 0
03:30 1017 30.03 847 25.01 7.4 45.3 77 3.7 38.6 0
03:31 1017 30.03 847 25.01 7.4 45.4 77 3.6 38.5 0
03:32 1017 30.03 847 25.01 7.5 45.4 75 3.2 37.8 0
03:33 1017 30.03 847 25.01 7.7 45.8 72 2.9 37.1 0
03:34 1017 30.03 847 25.01 8 46.4 69 2.7 36.9 0
03:35 1017 30.03 847 25.01 8.4 47.1 68 2.9 37.3 0
03:36 1017 30.03 847 25.01 8.6 47.5 68 3 37.3 0
03:37 1017 30.03 847 25.01 8.7 47.6 68 3.1 37.5 0
03:38 1017 30.03 847 25.01 8.7 47.7 67 2.9 37.3 0
03:39 1017 30.03 847 25.01 8.8 47.9 66 2.9 37.2 0
03:40 1017 30.03 847 25.01 8.9 48.1 66 2.9 37.1 0
03:41 1017 30.03 847 25.01 9 48.2 66 3 37.3 0
03:42 1017 30.03 847 25.01 9 48.2 66 2.9 37.3 0
03:43 1017 30.03 847 25.01 9 48.1 65 2.8 37.1 0
03:44 1017 30.03 846 24.98 9 48.2 65 2.7 36.9 0
03:45 1017 30.03 846 24.98 9.1 48.3 65 2.9 37.1 0
03:46 1017 30.03 847 25.01 9.1 48.4 64 2.8 37.1 0
03:47 1017 30.03 846 24.98 9.3 48.7 64 2.9 37.2 0
03:48 1017 30.03 846 24.98 9.4 48.8 65 3.1 37.6 0
03:49 1017 30.03 846 24.98 9.3 48.8 65 3.1 37.6 0
03:50 1017 30.03 846 24.98 9.3 48.7 65 3.2 37.7 0
03:51 1017 30.03 846 24.98 9.2 48.6 67 3.4 38.2 0
03:52 1017 30.03 846 24.98 9.1 48.4 68 3.5 38.2 0
03:53 1017 30.03 846 24.98 9.1 48.3 67 3.3 37.9 0
03:54 1017 30.03 847 25.01 9.1 48.3 68 3.5 38.3 0
03:55 1017 30.03 847 25.01 9 48.1 69 3.6 38.4 0
03:56 1017 30.03 847 25.01 8.9 48 68 3.4 38.1 0
03:57 1017 30.03 847 25.01 9.1 48.4 67 3.3 38 0
03:58 1017 30.03 847 25.01 9.4 48.9 66 3.4 38.2 0
03:59 1017 30.03 847 25.01 9.7 49.5 64 3.3 38 0
04:00 1017 30.03 847 25.01 9.9 49.9 64 3.4 38.1 0
04:01 1017 30.03 847 25.01 10 50 61 2.9 37.3 0
04:02 1017 30.03 847 25.01 10.1 50.2 61 3 37.4 0
04:03 1017 30.03 847 25.01 10.1 50.1 61 3 37.5 0
04:04 1017 30.03 847 25.01 10.1 50.1 62 3.2 37.8 0
04:05 1017 30.03 847 25.01 9.9 49.8 64 3.4 38.1 0
04:06 1017 30.03 847 25.01 9.7 49.4 64 3.2 37.7 0
04:07 1017 30.03 847 25.01 9.6 49.2 63 2.9 37.3 0
04:08 1017 30.03 847 25.01 9.6 49.2 62 2.7 36.9 0
04:09 1017 30.03 847 25.01 9.6 49.3 62 2.8 37 0
04:10 1017 30.03 847 25.01 9.5 49 64 3 37.4 0
04:11 1017 30.03 847 25.01 9.2 48.6 65 2.9 37.3 0
04:12 1017 30.03 847 25.01 9.1 48.4 65 2.9 37.3 0
04:13 1017 30.03 847 25.01 9 48.2 66 3 37.4 0
04:14 1017 30.03 847 25.01 8.8 47.9 67 3 37.4 0
04:15 1017 30.03 847 25.01 8.7 47.7 67 2.9 37.2 0
04:16 1017 30.03 847 25.01 8.7 47.6 66 2.7 36.9 0
04:17 1017 30.03 847 25.01 8.8 47.8 66 2.7 36.9 0
04:18 1017 30.03 847 25.01 8.9 48 65 2.7 36.9 0
04:19 1017 30.03 847 25.01 9 48.1 64 2.5 36.5 0
04:20 1017 30.03 847 25.01 9.2 48.5 64 2.8 37 0
04:21 1017 30.03 847 25.01 9.1 48.4 64 2.8 37 0
04:22 1017 30.03 847 25.01 9.1 48.3 64 2.6 36.7 0
04:23 1017 30.03 847 25.01 9.1 48.5 63 2.5 36.5 0
04:24 1017 30.03 847 25.01 9.3 48.7 63 2.5 36.5 0
04:25 1017 30.03 846 24.98 9.3 48.8 62 2.6 36.6 0
04:26 1017 30.03 846 24.98 9.3 48.8 62 2.5 36.5 0
04:27 1017 30.03 846 24.98 9.4 49 62 2.6 36.8 0
04:28 1017 30.03 847 25.01 9.3 48.8 64 2.9 37.2 0
04:29 1017 30.03 847 25.01 9.2 48.6 64 2.8 37 0
04:30 1017 30.03 847 25.01 9.2 48.5 64 2.6 36.7 0
04:31 1017 30.03 847 25.01 9.2 48.5 63 2.6 36.6 0
04:32 1017 30.03 847 25.01 9.2 48.6 63 2.6 36.8 0
04:33 1017 30.03 847 25.01 9.2 48.6 64 2.7 36.9 0
04:34 1017 30.03 847 25.01 9.3 48.7 64 2.8 37.1 0
04:35 1017 30.03 847 25.01 9.3 48.8 62 2.4 36.4 0
04:36 1017 30.03 847 25.01 9.5 49.1 61 2.3 36.2 0
04:37 1017 30.03 847 25.01 9.6 49.3 61 2.4 36.3 0
04:38 1017 30.03 847 25.01 9.7 49.4 61 2.6 36.6 0
04:39 1017 30.03 847 25.01 9.6 49.3 62 2.7 36.9 0
04:40 1017 30.03 847 25.01 9.5 49.1 62 2.6 36.8 0
04:41 1017 30.03 847 25.01 9.5 49 62 2.6 36.6 0
04:42 1017 30.03 847 25.01 9.5 49.1 62 2.6 36.6 0
04:43 1017 30.03 847 25.01 9.4 49 62 2.5 36.5 0
04:44 1017 30.03 847 25.01 9.3 48.8 63 2.6 36.8 0
04:45 1017 30.03 847 25.01 9.1 48.3 64 2.7 36.9 0
04:46 1017 30.03 847 25.01 8.9 47.9 65 2.6 36.7 0
04:47 1017 30.03 847 25.01 8.7 47.7 65 2.6 36.7 0
04:48 1017 30.03 847 25.01 8.6 47.4 66 2.7 36.9 0
04:49 1017 30.03 847 25.01 8.4 47.2 67 2.8 37 0
04:50 1018 30.06 847 25.01 8.3 47 68 2.8 37 0
04:51 1018 30.06 847 25.01 8.2 46.8 68 2.6 36.7 0
04:52 1018 30.06 847 25.01 8.3 46.9 67 2.6 36.7 0
04:53 1018 30.06 847 25.01 8.2 46.8 68 2.8 37 0
04:54 1018 30.06 847 25.01 8.2 46.8 69 2.9 37.3 0
04:55 1018 30.06 847 25.01 8.2 46.8 68 2.6 36.7 0
04:56 1018 30.06 847 25.01 8.5 47.4 66 2.6 36.7 0
04:57 1018 30.06 847 25.01 8.8 47.8 65 2.7 36.8 0
04:58 1018 30.06 847 25.01 9 48.1 65 2.7 36.9 0
04:59 1018 30.06 847 25.01 9 48.1 66 2.9 37.2 0
05:00 1018 30.06 847 25.01 8.8 47.9 67 3.1 37.6 0
05:01 1018 30.06 847 25.01 8.7 47.6 69 3.3 37.9 0
05:02 1018 30.06 847 25.01 8.5 47.4 69 3.2 37.7 0
05:03 1018 30.06 847 25.01 8.6 47.5 68 3.1 37.5 0
05:04 1017 30.03 847 25.01 8.8 47.8 67 3.1 37.6 0
05:05 1017 30.03 847 25.01 8.9 48 67 3.1 37.6 0
05:06 1017 30.03 847 25.01 9.1 48.3 66 3.1 37.6 0
05:07 1017 30.03 847 25.01 9.3 48.8 65 3.1 37.6 0
05:08 1017 30.03 847 25.01 9.4 49 65 3.1 37.7 0
05:09 1017 30.03 847 25.01 9.4 48.9 65 3.1 37.5 0
05:10 1017 30.03 847 25.01 9.3 48.8 66 3.3 37.9 0
05:11 1017 30.03 847 25.01 9.3 48.7 66 3.3 38 0
05:12 1017 30.03 847 25.01 9.2 48.6 66 3.3 37.9 0
05:13 1017 30.03 847 25.01 9.2 48.5 66 3.3 37.9 0
05:14 1017 30.03 847 25.01 9.2 48.5 66 3.2 37.8 0
05:15 1018 30.06 847 25.01 9.2 48.6 66 3.2 37.7 0
05:16 1018 30.06 847 25.01 9.2 48.6 65 3.1 37.5 0
05:17 1018 30.06 847 25.01 9.2 48.6 65 3.1 37.5 0
05:18 1018 30.06 847 25.01 9.2 48.5 64 2.8 37 0
05:19 1018 30.06 847 25.01 9 48.2 65 2.9 37.1 0
05:20 1018 30.06 847 25.01 8.7 47.7 67 2.9 37.3 0
05:21 1018 30.06 847 25.01 8.5 47.2 68 2.8 37.1 0
05:22 1018 30.06 847 25.01 8.3 46.9 68 2.7 36.8 0
05:23 1018 30.06 847 25.01 8.1 46.6 68 2.6 36.7 0
05:24 1018 30.06 847 25.01 8 46.5 69 2.6 36.7 0
05:25 1018 30.06 847 25.01 8 46.3 69 2.6 36.6 0
05:26 1018 30.06 847 25.01 7.9 46.3 69 2.5 36.5 0
05:27 1018 30.06 847 25.01 8 46.4 68 2.5 36.6 0
05:28 1018 30.06 847 25.01 8.1 46.5 68 2.6 36.7 0
05:29 1018 30.06 847 25.01 8.1 46.5 68 2.5 36.5 0
05:30 1018 30.06 847 25.01 8.1 46.6 67 2.4 36.3 0
05:31 1018 30.06 847 25.01 8.2 46.8 67 2.5 36.4 0
05:32 1018 30.06 847 25.01 8.3 46.9 67 2.4 36.4 0
05:33 1018 30.06 847 25.01 8.3 47 66 2.5 36.4 0
05:34 1018 30.06 847 25.01 8.3 46.9 67 2.6 36.6 0
05:35 1018 30.06 847 25.01 8.2 46.8 67 2.6 36.6 0
05:36 1018 30.06 847 25.01 8.1 46.6 68 2.6 36.6 0
05:37 1018 30.06 847 25.01 8.1 46.6 68 2.5 36.6 0
05:38 1018 30.06 847 25.01 8.1 46.6 68 2.6 36.6 0
05:39 1018 30.06 847 25.01 8.1 46.6 68 2.5 36.6 0
05:40 1018 30.06 847 25.01 8.1 46.6 68 2.6 36.7 0
05:41 1018 30.06 847 25.01 8 46.4 69 2.6 36.7 0
05:42 1017 30.03 847 25.01 7.9 46.2 69 2.7 36.8 0
05:43 1017 30.03 847 25.01 7.7 45.9 71 2.8 37 0
05:44 1017 30.03 847 25.01 7.5 45.5 72 2.7 36.9 0
05:45 1017 30.03 847 25.01 7.5 45.4 71 2.6 36.7 0
05:46 1017 30.03 847 25.01 7.5 45.4 71 2.5 36.5 0
05:47 1017 30.03 847 25.01 7.5 45.5 71 2.5 36.5 0
05:48 1018 30.06 847 25.01 7.6 45.6 71 2.6 36.7 0
05:49 1018 30.06 847 25.01 7.6 45.6 71 2.7 36.9 0
05:50 1018 30.06 847 25.01 7.6 45.7 70 2.5 36.5 0
05:51 1018 30.06 847 25.01 7.8 46 69 2.5 36.6 0
05:52 1018 30.06 847 25.01 7.9 46.2 69 2.7 36.8 0
05:53 1018 30.06 847 25.01 8 46.5 68 2.6 36.7 0
05:54 1018 30.06 847 25.01 8.2 46.7 68 2.6 36.7 0
05:55 1018 30.06 847 25.01 8.3 46.9 68 2.7 36.8 0
05:56 1018 30.06 847 25.01 8.4 47.1 67 2.7 36.8 0
05:57 1018 30.06 847 25.01 8.5 47.3 66 2.5 36.6 0
05:58 1017 30.03 847 25.01 8.6 47.6 66 2.7 36.8 0
05:59 1017 30.03 847 25.01 8.7 47.7 65 2.6 36.7 0
06:00 1017 30.03 847 25.01 8.8 47.8 66 2.7 36.9 0
06:01 1017 30.03 847 25.01 8.8 47.8 66 2.8 37.1 0
06:02 1017 30.03 847 25.01 8.7 47.7 67 3 37.3 0
06:03 1017 30.03 847 25.01 8.6 47.5 68 3.1 37.6 0
06:04 1017 30.03 847 25.01 8.5 47.3 68 3 37.5 0
06:05 1017 30.03 847 25.01 8.4 47.1 69 3 37.5 0
06:06 1017 30.03 847 25.01 8.3 47 70 3.2 37.7 0
06:07 1017 30.03 847 25.01 8.2 46.8 70 3.2 37.8 0
06:08 1017 30.03 847 25.01 8.2 46.7 71 3.2 37.7 0
06:09 1017 30.03 847 25.01 8.2 46.7 70 3 37.5 0
06:10 1017 30.03 847 25.01 8.2 46.8 70 3.1 37.6 0
06:11 1017 30.03 847 25.01 8.3 46.9 70 3.1 37.6 0
06:12 1018 30.06 847 25.01 8.4 47.1 69 3.2 37.7 0
06:13 1017 30.03 847 25.01 8.5 47.3 69 3.2 37.8 0
06:14 1018 30.06 847 25.01 8.6 47.6 69 3.4 38 0
06:15 1018 30.06 847 25.01 8.7 47.6 69 3.3 38 0
06:16 1018 30.06 847 25.01 8.9 48 68 3.4 38.1 0
06:17 1018 30.06 847 25.01 9 48.3 68 3.5 38.3 0
06:18 1018 30.06 847 25.01 9.2 48.6 66 3.3 37.9 0
06:19 1018 30.06 847 25.01 9.4 48.9 66 3.3 37.9 0
06:20 1018 30.06 847 25.01 9.5 49.2 64 3.2 37.7 0
06:21 1018 30.06 847 25.01 9.6 49.3 64 3.1 37.5 0
06:22 1018 30.06 847 25.01 9.7 49.4 64 3.3 37.9 0
06:23 1018 30.06 847 25.01 9.6 49.3 65 3.3 38 0
06:24 1018 30.06 847 25.01 9.6 49.3 65 3.4 38.2 0
06:25 1018 30.06 847 25.01 9.5 49.1 67 3.7 38.7 0
06:26 1018 30.06 847 25.01 9.3 48.8 68 3.8 38.9 0
06:27 1018 30.06 847 25.01 9.2 48.6 67 3.5 38.3 0
06:28 1018 30.06 847 25.01 9.2 48.6 68 3.6 38.4 0
06:29 1018 30.06 847 25.01 9.2 48.5 69 3.8 38.8 0
06:30 1018 30.06 847 25.01 9.2 48.5 69 3.8 38.9 0
06:31 1018 30.06 847 25.01 9.2 48.6 69 3.8 38.9 0
06:32 1018 30.06 847 25.01 9.2 48.5 69 3.9 39 0
06:33 1018 30.06 847 25.01 9.2 48.6 68 3.7 38.7 0
06:34 1018 30.06 847 25.01 9.3 48.7 68 3.8 38.8 0
06:35 1018 30.06 847 25.01 9.3 48.8 68 3.7 38.6 0
06:36 1018 30.06 847 25.01 9.3 48.8 68 3.8 38.8 0
06:37 1018 30.06 847 25.01 9.3 48.8 69 3.9 39 0
06:38 1018 30.06 847 25.01 9.3 48.7 70 4.1 39.3 0
06:39 1018 30.06 847 25.01 9.3 48.7 70 4.2 39.5 0
06:40 1018 30.06 847 25.01 9.2 48.5 72 4.3 39.8 0
06:41 1018 30.06 847 25.01 9.1 48.4 73 4.5 40.1 0
06:42 1018 30.06 847 25.01 9.1 48.3 73 4.5 40.1 0
06:43 1018 30.06 847 25.01 9.1 48.3 73 4.5 40.1 0
06:44 1018 30.06 847 25.01 9.1 48.4 73 4.6 40.3 0
06:45 1018 30.06 847 25.01 9.2 48.5 72 4.5 40.1 0
06:46 1018 30.06 847 25.01 9.3 48.7 72 4.5 40.2 0
06:47 1018 30.06 847 25.01 9.4 49 72 4.6 40.3 0
06:48 1018 30.06 847 25.01 9.5 49.1 73 4.9 40.8 0
06:49 1018 30.06 847 25.01 9.6 49.4 73 5 41 0
06:50 1018 30.06 847 25.01 9.7 49.4 73 5 41.1 0
06:51 1018 30.06 847 25.01 9.8 49.6 72 5 41 0
06:52 1018 30.06 847 25.01 9.9 49.7 72 5.1 41.1 0
06:53 1018 30.06 847 25.01 9.9 49.9 72 5.2 41.4 0
06:54 1018 30.06 847 25.01 10 50 73 5.3 41.6 0
06:55 1018 30.06 847 25.01 10 50.1 74 5.6 42 0
06:56 1018 30.06 847 25.01 10.1 50.2 74 5.8 42.4 0
06:57 1018 30.06 847 25.01 10.2 50.3 71 5.2 41.4 0
06:58 1018 30.06 847 25.01 10.2 50.4 71 5.2 41.4 0
06:59 1018 30.06 847 25.01 10.3 50.6 71 5.4 41.8 0
07:00 1018 30.06 847 25.01 10.4 50.7 71 5.4 41.6 0
07:01 1018 30.06 847 25.01 10.4 50.8 69 5.1 41.2 0
07:02 1018 30.06 847 25.01 10.5 50.9 71 5.4 41.7 0
07:03 1018 30.06 847 25.01 10.5 51 72 5.8 42.4 0
07:04 1018 30.06 847 25.01 10.5 51 72 5.8 42.5 0
07:05 1018 30.06 847 25.01 10.5 50.9 71 5.5 41.8 0
07:06 1018 30.06 847 25.01 10.6 51 72 5.8 42.5 0
07:07 1018 30.06 847 25.01 10.6 51 71 5.6 42.1 0
07:08 1018 30.06 847 25.01 10.5 50.9 73 5.8 42.5 0
07:09 1018 30.06 847 25.01 10.5 50.8 73 5.9 42.6 0
07:10 1018 30.06 847 25.01 10.5 50.9 73 5.8 42.5 0
07:11 1018 30.06 847 25.01 10.6 51 73 6 42.7 0
07:12 1018 30.06 847 25.01 10.7 51.3 73 6 42.8 0
07:13 1018 30.06 847 25.01 10.9 51.7 71 6 42.8 0
07:14 1018 30.06 847 25.01 11.2 52.2 69 5.7 42.3 0
07:15 1018 30.06 847 25.01 11.4 52.6 69 6.1 42.9 0
07:16 1018 30.06 847 25.01 11.5 52.8 66 5.5 41.9 0
07:17 1018 30.06 847 25.01 11.7 53 66 5.6 42.1 0
07:18 1018 30.06 847 25.01 11.9 53.4 68 6.2 43.2 0
07:19 1018 30.06 847 25.01 12.2 53.9 65 5.9 42.7 0
07:20 1018 30.06 847 25.01 12.4 54.3 66 6.2 43.1 0
07:21 1018 30.06 847 25.01 12.6 54.8 63 5.9 42.7 0
07:22 1018 30.06 847 25.01 12.8 55.1 63 5.9 42.6 0
07:23 1018 30.06 847 25.01 13 55.3 64 6.3 43.4 0
07:24 1018 30.06 847 25.01 13.1 55.7 66 6.9 44.4 0
07:25 1018 30.06 847 25.01 13.3 56 60 5.9 42.6 0
07:26 1018 30.06 847 25.01 13.5 56.3 60 5.9 42.6 0
07:27 1018 30.06 847 25.01 13.6 56.5 58 5.6 42 0
07:28 1018 30.06 847 25.01 13.7 56.6 61 6.3 43.3 0
07:29 1018 30.06 847 25.01 13.8 56.9 57 5.4 41.8 0
07:30 1018 30.06 847 25.01 13.9 57.1 57 5.7 42.3 0
07:31 1018 30.06 847 25.01 13.9 57 58 5.9 42.6 0
07:32 1018 30.06 847 25.01 13.9 56.9 59 6.2 43.1 0
07:33 1018 30.06 847 25.01 13.8 56.9 57 5.6 42.1 0
07:34 1018 30.06 847 25.01 13.9 57 57 5.7 42.2 0
07:35 1018 30.06 847 25.01 14 57.1 58 5.9 42.6 0
07:36 1018 30.06 847 25.01 14 57.2 60 6.3 43.4 0
07:37 1018 30.06 847 25.01 14 57.2 61 6.7 44.1 0
07:38 1018 30.06 847 25.01 14 57.2 60 6.6 43.8 0
07:39 1018 30.06 847 25.01 14 57.3 59 6.3 43.3 0
07:40 1018 30.06 847 25.01 14 57.3 57 5.7 42.2 0
07:41 1018 30.06 847 25.01 14 57.2 57 5.7 42.2 0
07:42 1018 30.06 847 25.01 14 57.1 56 5.3 41.6 0
07:43 1018 30.06 847 25.01 13.9 56.9 54 4.9 40.8 0
07:44 1018 30.06 847 25.01 13.8 56.8 55 5 41 0
07:45 1018 30.06 847 25.01 13.7 56.6 59 5.9 42.6 0
07:46 1018 30.06 847 25.01 13.6 56.6 58 5.5 42 0
07:47 1018 30.06 847 25.01 13.7 56.6 58 5.5 42 0
07:48 1018 30.06 847 25.01 13.6 56.5 58 5.6 42.1 0
07:49 1018 30.06 847 25.01 13.6 56.5 60 6 42.9 0
07:50 1018 30.06 847 25.01 13.6 56.5 56 4.9 40.9 0
07:51 1018 30.06 847 25.01 13.6 56.4 56 4.9 40.9 0
07:52 1018 30.06 847 25.01 13.6 56.5 60 6.1 42.9 0
07:53 1018 30.06 847 25.01 13.6 56.5 61 6.3 43.3 0
07:54 1018 30.06 847 25.01 13.7 56.7 60 6 42.8 0
07:55 1018 30.06 847 25.01 13.7 56.7 61 6.5 43.7 0
07:56 1018 30.06 847 25.01 13.8 56.8 61 6.5 43.7 0
07:57 1018 30.06 847 25.01 13.8 56.9 59 6 42.8 0
07:58 1018 30.06 847 25.01 13.8 56.9 62 6.7 44.1 0
07:59 1018 30.06 847 25.01 13.9 57 60 6.3 43.3 0
08:00 1018 30.06 847 25.01 13.8 56.9 61 6.6 43.8 0
08:01 1018 30.06 847 25.01 13.8 56.9 59 6 42.8 0
08:02 1018 30.06 847 25.01 13.8 56.8 60 6.2 43.2 0
08:03 1018 30.06 847 25.01 13.8 56.8 60 6.3 43.3 0
08:04 1018 30.06 847 25.01 13.8 56.8 62 6.8 44.2 0
08:05 1018 30.06 847 25.01 13.7 56.6 60 6.1 42.9 0
08:06 1018 30.06 847 25.01 13.6 56.5 64 6.9 44.5 0
08:07 1018 30.06 847 25.01 13.6 56.4 61 6.2 43.2 0
08:08 1018 30.06 847 25.01 13.5 56.2 64 6.9 44.4 0
08:09 1018 30.06 847 25.01 13.5 56.2 67 7.4 45.4 0
08:10 1018 30.06 847 25.01 13.5 56.2 61 6.1 43 0
08:11 1018 30.06 847 25.01 13.5 56.2 63 6.6 43.8 0
08:12 1018 30.06 847 25.01 13.4 56.2 62 6.3 43.4 0
08:13 1018 30.06 847 25.01 13.4 56.1 59 5.6 42 0
08:14 1018 30.06 847 25.01 13.4 56.2 62 6.4 43.5 0
08:15 1018 30.06 847 25.01 13.4 56.1 65 7 44.5 0
08:16 1018 30.06 847 25.01 13.4 56.2 67 7.4 45.3 0
08:17 1018 30.06 847 25.01 13.5 56.2 61 6.2 43.2 0
08:18 1018 30.06 847 25.01 13.4 56.2 65 7 44.6 0
08:19 1018 30.06 847 25.01 13.4 56.2 61 6.1 43 0
08:20 1018 30.06 847 25.01 13.4 56.1 62 6.3 43.3 0
08:21 1018 30.06 847 25.01 13.3 55.9 64 6.7 44 0
08:22 1018 30.06 847 25.01 13.2 55.8 64 6.6 43.9 0
08:23 1018 30.06 847 25.01 13.2 55.8 63 6.3 43.3 0
08:24 1018 30.06 847 25.01 13.1 55.7 63 6.4 43.5 0
08:25 1018 30.06 847 25.01 13.1 55.6 62 6 42.8 0
08:26 1018 30.06 847 25.01 13.1 55.7 65 6.7 44 0
08:27 1018 30.06 847 25.01 13.2 55.8 67 7.3 45.2 0
08:28 1018 30.06 847 25.01 13.4 56.1 64 6.7 44.1 0
08:29 1018 30.06 847 25.01 13.5 56.2 65 7.1 44.9 0
08:30 1018 30.06 847 25.01 13.5 56.3 63 6.6 43.8 0
08:31 1018 30.06 847 25.01 13.5 56.3 61 6.1 42.9 0
08:32 1018 30.06 847 25.01 13.4 56.1 66 7.2 45 0
08:33 1018 30.06 847 25.01 13.2 55.8 64 6.5 43.7 0
08:34 1018 30.06 847 25.01 13.1 55.6 68 7.4 45.3 0
08:35 1018 30.06 847 25.01 13 55.4 66 6.9 44.4 0
08:36 1018 30.06 847 25.01 12.9 55.2 66 6.6 43.9 0
08:37 1018 30.06 847 25.01 12.8 55 67 6.8 44.2 0
08:38 1018 30.06 847 25.01 12.8 55 66 6.6 43.9 0
08:39 1018 30.06 847 25.01 12.8 55 67 6.9 44.4 0
08:40 1018 30.06 847 25.01 12.8 55 68 7.1 44.8 0
08:41 1018 30.06 847 25.01 12.7 54.9 67 6.9 44.4 0
08:42 1018 30.06 847 25.01 12.7 54.9 67 6.8 44.2 0
08:43 1018 30.06 847 25.01 12.7 54.8 67 6.8 44.3 0
08:44 1018 30.06 847 25.01 12.8 55 65 6.5 43.7 0
08:45 1018 30.06 847 25.01 12.8 55 64 6.2 43.1 0
08:46 1018 30.06 847 25.01 12.8 55.1 64 6.3 43.4 0
08:47 1018 30.06 847 25.01 12.8 55.1 64 6.3 43.4 0
08:48 1018 30.06 847 25.01 12.8 55.1 66 6.6 43.9 0
08:49 1018 30.06 847 25.01 12.9 55.2 63 6.1 43 0
08:50 1018 30.06 847 25.01 12.9 55.3 66 6.8 44.3 0
08:51 1018 30.06 847 25.01 13 55.4 66 6.9 44.4 0
08:52 1018 30.06 847 25.01 13 55.5 67 7.1 44.7 0
08:53 1018 30.06 847 25.01 13.1 55.7 64 6.5 43.7 0
08:54 1018 30.06 847 25.01 13.1 55.7 66 7 44.6 0
08:55 1018 30.06 847 25.01 13.1 55.6 68 7.3 45.2 0
08:56 1018 30.06 847 25.01 13.2 55.7 67 7.3 45.1 0
08:57 1018 30.06 847 25.01 13.2 55.7 67 7.3 45.1 0
08:58 1018 30.06 847 25.01 13.2 55.7 68 7.4 45.3 0
08:59 1018 30.06 847 25.01 13.2 55.7 67 7.2 44.9 0
09:00 1018 30.06 847 25.01 13.2 55.8 67 7.4 45.3 0
09:01 1018 30.06 847 25.01 13.3 55.9 67 7.3 45.1 0
09:02 1018 30.06 847 25.01 13.4 56.2 63 6.6 44 0
09:03 1018 30.06 847 25.01 13.5 56.3 61 6.3 43.3 0
09:04 1018 30.06 847 25.01 13.6 56.5 64 7 44.6 0
09:05 1018 30.06 847 25.01 13.7 56.7 59 5.8 42.4 0
09:06 1018 30.06 847 25.01 13.8 56.9 67 8 46.3 0
09:07 1018 30.06 847 25.01 13.9 56.9 59 6 42.8 0
09:08 1018 30.06 847 25.01 13.8 56.8 68 8 46.3 0
09:09 1018 30.06 847 25.01 13.8 56.8 62 6.8 44.3 0
09:10 1018 30.06 847 25.01 13.7 56.6 63 6.8 44.3 0
09:11 1018 30.06 847 25.01 13.6 56.5 64 7 44.6 0
09:12 1018 30.06 847 25.01 13.5 56.4 66 7.3 45.1 0
09:13 1018 30.06 847 25.01 13.6 56.4 64 6.9 44.3 0
09:14 1018 30.06 847 25.01 13.5 56.3 68 7.7 45.9 0
09:15 1018 30.06 847 25.01 13.5 56.2 67 7.5 45.4 0
09:16 1018 30.06 847 25.01 13.4 56.1 68 7.7 45.8 0
09:17 1018 30.06 847 25.01 13.4 56.1 64 6.9 44.4 0
09:18 1018 30.06 847 25.01 13.3 56 65 7 44.6 0
09:19 1018 30.06 847 25.01 13.2 55.8 64 6.7 44 0
09:20 1018 30.06 847 25.01 13.2 55.7 68 7.5 45.5 0
09:21 1018 30.06 847 25.01 13.2 55.7 67 7.3 45.1 0
09:22 1018 30.06 847 25.01 13.1 55.6 69 7.6 45.7 0
09:23 1018 30.06 847 25.01 13 55.5 67 7.1 44.8 0
09:24 1018 30.06 847 25.01 13 55.4 68 7.3 45.2 0
09:25 1018 30.06 847 25.01 13 55.4 69 7.4 45.4 0
09:26 1018 30.06 847 25.01 13 55.3 68 7.3 45.1 0
09:27 1018 30.06 847 25.01 13 55.4 70 7.7 45.8 0
09:28 1018 30.06 847 25.01 13 55.5 65 6.8 44.2 0
09:29 1018 30.06 847 25.01 13.1 55.6 70 7.7 45.9 0
09:30 1018 30.06 847 25.01 13.2 55.7 68 7.4 45.3 0
09:31 1018 30.06 848 25.04 13.2 55.7 70 7.8 46.1 0
09:32 1018 30.06 848 25.04 13.2 55.7 68 7.5 45.6 0
09:33 1018 30.06 848 25.04 13.2 55.7 68 7.4 45.3 0
09:34 1019 30.09 848 25.04 13.2 55.7 67 7.3 45.1 0
09:35 1019 30.09 848 25.04 13.2 55.8 69 7.7 45.9 0
09:36 1019 30.09 848 25.04 13.3 55.9 68 7.6 45.8 0
09:37 1019 30.09 848 25.04 13.3 56 68 7.6 45.7 0
09:38 1018 30.06 848 25.04 13.4 56.1 67 7.5 45.4 0
09:39 1018 30.06 848 25.04 13.5 56.3 69 7.9 46.3 0
09:40 1018 30.06 848 25.04 13.6 56.5 67 7.6 45.6 0
09:41 1018 30.06 848 25.04 13.7 56.6 67 7.7 45.9 0
09:42 1018 30.06 848 25.04 13.8 56.8 67 7.9 46.2 0
09:43 1018 30.06 848 25.04 13.8 56.8 65 7.3 45.1 0
09:44 1018 30.06 848 25.04 13.8 56.8 62 6.7 44.1 0
09:45 1018 30.06 848 25.04 13.7 56.6 63 6.8 44.2 0
09:46 1018 30.06 848 25.04 13.7 56.6 65 7.3 45.1 0
09:47 1018 30.06 848 25.04 13.6 56.5 64 7.1 44.7 0
09:48 1018 30.06 848 25.04 13.6 56.5 63 6.7 44.1 0
09:49 1018 30.06 848 25.04 13.6 56.4 68 7.7 45.9 0
09:50 1018 30.06 848 25.04 13.6 56.4 65 7.2 45 0
09:51 1018 30.06 847 25.01 13.5 56.3 64 7 44.6 0
09:52 1018 30.06 848 25.04 13.4 56.2 67 7.4 45.4 0
09:53 1018 30.06 848 25.04 13.5 56.3 66 7.4 45.3 0
09:54 1018 30.06 848 25.04 13.5 56.3 68 7.7 45.9 0
09:55 1018 30.06 848 25.04 13.6 56.4 65 7.2 44.9 0
09:56 1018 30.06 848 25.04 13.5 56.4 66 7.3 45.1 0
09:57 1018 30.06 848 25.04 13.5 56.3 65 7.2 44.9 0
09:58 1018 30.06 848 25.04 13.5 56.2 66 7.2 45 0
09:59 1018 30.06 848 25.04 13.4 56.2 65 7.1 44.8 0
10:00 1019 30.09 848 25.04 13.5 56.3 64 6.8 44.3 0
10:01 1019 30.09 848 25.04 13.6 56.6 66 7.5 45.5 0
10:02 1019 30.09 848 25.04 14 57.1 66 7.7 45.8 0
10:03 1019 30.09 848 25.04 14.2 57.5 62 7.2 45 0
10:04 1019 30.09 848 25.04 14.4 57.9 65 8.1 46.5 0
10:05 1019 30.09 848 25.04 14.6 58.2 63 7.6 45.7 0
10:06 1019 30.09 848 25.04 14.7 58.5 63 7.9 46.2 0
10:07 1019 30.09 848 25.04 14.9 58.8 61 7.4 45.4 0
10:08 1019 30.09 848 25.04 15 58.9 58 7 44.5 0
10:09 1019 30.09 848 25.04 15 59 61 7.5 45.6 0
10:10 1019 30.09 848 25.04 15.2 59.3 58 7 44.7 0
10:11 1018 30.06 848 25.04 15.2 59.3 58 7.1 44.8 0
10:12 1019 30.09 848 25.04 15.2 59.4 61 7.8 46 0
10:13 1018 30.06 848 25.04 15.4 59.7 64 8.7 47.6 0
10:14 1018 30.06 848 25.04 15.5 59.9 62 8.4 47.1 0
10:15 1018 30.06 848 25.04 15.5 60 58 7.5 45.5 0
10:16 1018 30.06 848 25.04 15.5 59.8 59 7.6 45.7 0
10:17 1018 30.06 848 25.04 15.5 59.9 62 8.4 47.1 0
10:18 1018 30.06 848 25.04 15.6 60.2 58 7.4 45.3 0
10:19 1018 30.06 848 25.04 15.7 60.2 61 8.2 46.7 0
10:20 1018 30.06 848 25.04 15.7 60.3 59 7.7 45.9 0
10:21 1018 30.06 848 25.04 15.8 60.4 63 8.9 47.9 0
10:22 1018 30.06 848 25.04 15.9 60.6 62 8.6 47.5 0
10:23 1018 30.06 848 25.04 16 60.7 56 7.3 45.2 0
10:24 1018 30.06 848 25.04 16 60.7 57 7.5 45.5 0
10:25 1018 30.06 848 25.04 15.9 60.7 59 7.9 46.2 0
10:26 1018 30.06 848 25.04 16 60.8 55 7 44.7 0
10:27 1018 30.06 848 25.04 15.9 60.7 58 7.7 45.8 0
10:28 1018 30.06 848 25.04 15.9 60.6 56 7.2 45 0
10:29 1018 30.06 848 25.04 15.9 60.6 62 8.6 47.5 0
10:30 1018 30.06 848 25.04 16 60.7 63 9 48.2 0
10:31 1018 30.06 848 25.04 16.2 61.1 55 7.3 45.1 0
10:32 1018 30.06 847 25.01 16.2 61.2 63 9.2 48.6 0
10:33 1018 30.06 847 25.01 16.3 61.3 60 8.6 47.5 0
10:34 1018 30.06 847 25.01 16.3 61.3 57 7.8 46 0
10:35 1018 30.06 847 25.01 16.3 61.3 58 8.1 46.6 0
10:36 1018 30.06 847 25.01 16.3 61.3 64 9.6 49.3 0
10:37 1018 30.06 847 25.01 16.3 61.3 57 7.7 45.9 0
10:38 1018 30.06 847 25.01 16.2 61.1 58 8 46.3 0
10:39 1018 30.06 847 25.01 16.1 61.1 55 7.3 45.1 0
10:40 1018 30.06 847 25.01 16.2 61.1 56 7.5 45.6 0
10:41 1018 30.06 847 25.01 16.1 61.1 57 7.8 46 0
10:42 1018 30.06 847 25.01 16.2 61.2 56 7.6 45.7 0
10:43 1018 30.06 847 25.01 16.4 61.5 59 8.4 47.2 0
10:44 1018 30.06 847 25.01 16.4 61.5 55 7.6 45.6 0
10:45 1018 30.06 847 25.01 16.3 61.4 62 9.2 48.6 0
10:46 1018 30.06 847 25.01 16.4 61.5 63 9.4 48.9 0
10:47 1018 30.06 847 25.01 16.5 61.7 60 8.9 48 0
10:48 1018 30.06 847 25.01 16.6 61.8 59 8.5 47.4 0
10:49 1018 30.06 847 25.01 16.6 61.9 56 7.8 46.1 0
10:50 1018 30.06 847 25.01 16.6 61.8 53 7 44.6 0
10:51 1018 30.06 847 25.01 16.4 61.5 52 6.6 43.8 0
10:52 1018 30.06 847 25.01 16.4 61.5 55 7.4 45.3 0
10:53 1018 30.06 847 25.01 16.4 61.5 56 7.6 45.8 0
10:54 1018 30.06 847 25.01 16.4 61.6 57 8 46.3 0
10:55 1018 30.06 847 25.01 16.4 61.6 55 7.4 45.3 0
10:56 1018 30.06 847 25.01 16.5 61.8 62 9.4 48.9 0
10:57 1018 30.06 847 25.01 16.7 62.1 56 8 46.4 0
10:58 1018 30.06 847 25.01 16.8 62.3 57 8.4 47 0
10:59 1018 30.06 847 25.01 16.8 62.3 58 8.6 47.5 0
11:00 1018 30.06 847 25.01 16.7 62.1 54 7.4 45.3 0
11:01 1018 30.06 847 25.01 16.6 61.9 54 7.3 45.1 0
11:02 1018 30.06 847 25.01 16.6 61.8 57 8 46.5 0
11:03 1018 30.06 847 25.01 16.6 61.8 55 7.5 45.4 0
11:04 1018 30.06 847 25.01 16.6 61.8 57 8.1 46.6 0
11:05 1018 30.06 847 25.01 16.8 62.2 58 8.6 47.4 0
11:06 1018 30.06 847 25.01 17 62.5 59 8.9 48 0
11:07 1018 30.06 847 25.01 17.1 62.7 52 7.2 45 0
11:08 1018 30.06 847 25.01 17.1 62.7 60 9.4 48.9 0
11:09 1018 30.06 847 25.01 17.2 62.9 50 6.8 44.2 0
11:10 1018 30.06 847 25.01 17.2 63 51 7.1 44.8 0
11:11 1018 30.06 847 25.01 17.3 63.1 50 6.9 44.4 0
11:12 1018 30.06 847 25.01 17.3 63.1 56 8.7 47.6 0
11:13 1018 30.06 847 25.01 17.4 63.3 62 10 50 0
11:14 1018 30.06 847 25.01 17.4 63.3 60 9.7 49.4 0
11:15 1018 30.06 847 25.01 17.3 63.2 53 7.7 45.9 0
11:16 1018 30.06 847 25.01 17.2 63 57 8.6 47.5 0
11:17 1018 30.06 847 25.01 17.2 63 52 7.3 45.1 0
11:18 1018 30.06 847 25.01 17.1 62.8 52 7.2 44.9 0
11:19 1018 30.06 847 25.01 17.1 62.7 59 9.2 48.5 0
11:20 1018 30.06 847 25.01 17.1 62.9 59 9.2 48.6 0
11:21 1018 30.06 847 25.01 17.2 63 52 7.5 45.5 0
11:22 1018 30.06 847 25.01 17.2 63 59 9.3 48.7 0
11:23 1018 30.06 847 25.01 17.2 63 54 8 46.4 0
11:24 1018 30.06 847 25.01 17.2 63 50 7 44.5 0
11:25 1018 30.06 847 25.01 17.2 63 52 7.3 45.2 0
11:26 1018 30.06 847 25.01 17.3 63.2 54 8 46.4 0
11:27 1018 30.06 847 25.01 17.4 63.3 51 7.3 45.2 0
11:28 1018 30.06 847 25.01 17.3 63.2 55 8.2 46.7 0
11:29 1018 30.06 847 25.01 17.3 63.2 54 8.1 46.5 0
11:30 1018 30.06 847 25.01 17.4 63.3 55 8.4 47.1 0
11:31 1018 30.06 847 25.01 17.5 63.4 57 9 48.2 0
11:32 1018 30.06 847 25.01 17.6 63.8 53 8.2 46.7 0
11:33 1018 30.06 847 25.01 17.7 63.9 61 10.2 50.3 0
11:34 1018 30.06 847 25.01 17.7 63.9 53 8.1 46.6 0
11:35 1018 30.06 847 25.01 17.6 63.7 59 9.5 49.1 0
11:36 1018 30.06 847 25.01 17.7 63.9 52 7.8 46.1 0
11:37 1018 30.06 847 25.01 17.6 63.7 63 10.6 51.1 0
11:38 1018 30.06 847 25.01 17.7 63.8 51 7.6 45.6 0
11:39 1018 30.06 847 25.01 17.5 63.5 57 9 48.2 0
11:40 1018 30.06 847 25.01 17.5 63.4 54 8.2 46.8 0
11:41 1018 30.06 847 25.01 17.5 63.4 54 8.3 46.9 0
11:42 1018 30.06 847 25.01 17.5 63.6 59 9.5 49 0
11:43 1018 30.06 847 25.01 17.7 63.9 58 9.4 49 0
11:44 1018 30.06 847 25.01 17.9 64.2 56 9 48.2 0
11:45 1018 30.06 847 25.01 17.8 64.1 60 10.1 50.2 0
11:46 1018 30.06 847 25.01 17.9 64.1 51 7.8 46 0
11:47 1018 30.06 847 25.01 17.8 64 58 9.6 49.2 0
11:48 1018 30.06 847 25.01 17.8 64.1 59 9.7 49.5 0
11:49 1018 30.06 847 25.01 17.9 64.2 52 7.9 46.3 0
11:50 1018 30.06 847 25.01 18 64.5 52 8.1 46.7 0
11:51 1018 30.06 847 25.01 18.2 64.8 55 9.3 48.7 0
11:52 1018 30.06 847 25.01 18.2 64.8 57 9.6 49.2 0
11:53 1018 30.06 847 25.01 18.1 64.7 55 9.2 48.5 0
11:54 1018 30.06 847 25.01 18 64.4 53 8.5 47.3 0
11:55 1018 30.06 847 25.01 18.1 64.5 51 8 46.3 0
11:56 1018 30.06 847 25.01 18.1 64.6 58 9.7 49.5 0
11:57 1018 30.06 847 25.01 18.1 64.6 53 8.5 47.4 0
11:58 1018 30.06 847 25.01 18.1 64.6 55 9.1 48.4 0
11:59 1018 30.06 847 25.01 18.2 64.8 55 9.1 48.4 0
12:00 1018 30.06 847 25.01 18.3 64.9 53 8.7 47.7 0
12:01 1018 30.06 847 25.01 18.2 64.8 58 9.9 49.8 0
12:02 1018 30.06 847 25.01 18.2 64.7 50 7.7 45.9 0
12:03 1018 30.06 847 25.01 18.2 64.7 53 8.6 47.5 0
12:04 1018 30.06 847 25.01 18.2 64.7 49 7.5 45.4 0
12:05 1018 30.06 847 25.01 18.2 64.7 53 8.5 47.3 0
12:06 1018 30.06 847 25.01 18.2 64.7 62 10.8 51.5 0
12:07 1018 30.06 847 25.01 18.3 65 51 8 46.5 0
12:08 1018 30.06 847 25.01 18.3 65 55 9.2 48.5 0
12:09 1018 30.06 847 25.01 18.3 64.9 53 8.7 47.6 0
12:10 1018 30.06 847 25.01 18.4 65 49 7.7 45.8 0
12:11 1018 30.06 847 25.01 18.4 65.1 50 7.8 46 0
12:12 1018 30.06 847 25.01 18.5 65.2 51 8.1 46.6 0
12:13 1018 30.06 847 25.01 18.5 65.3 56 9.6 49.3 0
12:14 1018 30.06 847 25.01 18.6 65.4 50 8 46.3 0
12:15 1018 30.06 847 25.01 18.5 65.3 57 10 49.9 0
12:16 1018 30.06 847 25.01 18.5 65.2 52 8.6 47.5 0
12:17 1018 30.06 847 25.01 18.4 65.2 58 10.1 50.2 0
12:18 1018 30.06 847 25.01 18.4 65.2 51 8.3 46.9 0
12:19 1018 30.06 847 25.01 18.5 65.3 52 8.4 47.2 0
12:20 1018 30.06 847 25.01 18.5 65.3 52 8.7 47.7 0
12:21 1018 30.06 847 25.01 18.5 65.3 54 9.2 48.6 0
12:22 1018 30.06 847 25.01 18.5 65.3 53 8.8 47.8 0
12:23 1018 30.06 847 25.01 18.6 65.4 52 8.6 47.5 0
12:24 1018 30.06 847 25.01 18.6 65.5 48 7.4 45.4 0
12:25 1018 30.06 847 25.01 18.7 65.6 49 7.8 46 0
12:26 1018 30.06 847 25.01 18.6 65.5 54 9.4 48.8 0
12:27 1018 30.06 847 25.01 18.7 65.7 60 10.8 51.4 0
12:28 1018 30.06 847 25.01 18.9 66 57 10.2 50.3 0
12:29 1018 30.06 847 25.01 18.9 66.1 58 10.6 51 0
12:30 1018 30.06 847 25.01 18.9 66 58 10.5 50.8 0
12:31 1018 30.06 847 25.01 18.9 66.1 49 8.2 46.8 0
12:32 1018 30.06 847 25.01 18.9 66.1 53 9.4 48.8 0
12:33 1018 30.06 847 25.01 19 66.1 54 9.6 49.2 0
12:34 1018 30.06 847 25.01 19 66.2 59 10.8 51.5 0
12:35 1018 30.06 847 25.01 19.1 66.4 52 9 48.3 0
12:36 1018 30.06 847 25.01 19.1 66.4 58 10.7 51.2 0
12:37 1018 30.06 847 25.01 19.1 66.4 48 8.1 46.6 0
12:38 1018 30.06 847 25.01 19.1 66.4 48 8 46.4 0
12:39 1017 30.03 847 25.01 19.2 66.5 56 10.2 50.3 0
12:40 1018 30.06 847 25.01 19.2 66.6 53 9.6 49.4 0
12:41 1017 30.03 847 25.01 19.2 66.5 53 9.5 49.1 0
12:42 1017 30.03 847 25.01 19.1 66.4 51 8.9 48 0
12:43 1018 30.06 847 25.01 19.1 66.5 49 8.2 46.7 0
12:44 1017 30.03 847 25.01 19.2 66.5 53 9.5 49.1 0
12:45 1017 30.03 847 25.01 19.1 66.4 55 10 50 0
12:46 1017 30.03 847 25.01 19.2 66.6 56 10.3 50.6 0
12:47 1017 30.03 847 25.01 19.3 66.7 50 8.8 47.9 0
12:48 1017 30.03 847 25.01 19.2 66.6 52 9.3 48.7 0
12:49 1017 30.03 847 25.01 19.2 66.5 52 9.3 48.7 0
12:50 1017 30.03 847 25.01 19.2 66.5 53 9.5 49 0
12:51 1017 30.03 847 25.01 19.2 66.5 50 8.7 47.6 0
12:52 1017 30.03 847 25.01 19.2 66.5 51 8.8 47.9 0
12:53 1017 30.03 847 25.01 19.2 66.5 55 10 50 0
12:54 1017 30.03 847 25.01 19.2 66.5 49 8.4 47.1 0
12:55 1017 30.03 847 25.01 19.2 66.6 49 8.4 47.2 0
12:56 1017 30.03 847 25.01 19.4 66.8 53 9.5 49.2 0
12:57 1017 30.03 847 25.01 19.4 67 54 10 50 0
12:58 1017 30.03 847 25.01 19.4 66.9 57 10.7 51.2 0
12:59 1017 30.03 847 25.01 19.2 66.6 54 9.8 49.6 0
13:00 1017 30.03 847 25.01 19.3 66.7 50 8.7 47.7 0
13:01 1017 30.03 847 25.01 19.4 66.9 56 10.5 51 0
13:02 1017 30.03 847 25.01 19.5 67.1 55 10.3 50.5 0
13:03 1017 30.03 847 25.01 19.6 67.2 54 10.2 50.3 0
13:04 1017 30.03 847 25.01 19.5 67 47 8 46.5 0
13:05 1017 30.03 847 25.01 19.3 66.8 51 9 48.3 0
13:06 1017 30.03 847 25.01 19.3 66.7 48 8.1 46.6 0
13:07 1017 30.03 847 25.01 19.3 66.7 52 9.3 48.7 0
13:08 1017 30.03 847 25.01 19.2 66.6 52 9.2 48.6 0
13:09 1017 30.03 847 25.01 19.2 66.6 54 9.9 49.7 0
13:10 1017 30.03 847 25.01 19.4 66.8 48 8.4 47 0
13:11 1017 30.03 847 25.01 19.4 66.9 57 10.8 51.5 0
13:12 1017 30.03 847 25.01 19.4 66.9 47 7.8 46.1 0
13:13 1017 30.03 847 25.01 19.5 67 58 11.1 51.9 0
13:14 1017 30.03 847 25.01 19.6 67.3 53 10 50 0
13:15 1017 30.03 847 25.01 19.8 67.6 58 11.3 52.3 0
13:16 1017 30.03 847 25.01 19.8 67.7 48 8.7 47.6 0
13:17 1017 30.03 847 25.01 19.7 67.5 50 9.2 48.6 0
13:18 1017 30.03 846 24.98 19.6 67.2 47 8.2 46.8 0
13:19 1017 30.03 846 24.98 19.4 66.9 50 8.9 48 0
13:20 1017 30.03 846 24.98 19.4 66.8 52 9.5 49.1 0
13:21 1017 30.03 846 24.98 19.3 66.7 50 8.7 47.7 0
13:22 1017 30.03 846 24.98 19.2 66.5 56 10.2 50.4 0
13:23 1017 30.03 846 24.98 19.3 66.8 54 10.1 50.1 0
13:24 1017 30.03 846 24.98 19.5 67 55 10.2 50.3 0
13:25 1017 30.03 846 24.98 19.6 67.2 47 8 46.3 0
13:26 1017 30.03 846 24.98 19.5 67.2 56 10.7 51.3 0
13:27 1017 30.03 846 24.98 19.5 67.2 52 9.4 49 0
13:28 1017 30.03 846 24.98 19.5 67 53 9.8 49.6 0
13:29 1017 30.03 846 24.98 19.3 66.7 54 9.7 49.5 0
13:30 1017 30.03 846 24.98 19.1 66.3 53 9.5 49 0
13:31 1017 30.03 846 24.98 18.9 66 57 10.2 50.4 0
13:32 1017 30.03 846 24.98 19 66.2 56 10.1 50.1 0
13:33 1017 30.03 846 24.98 19.2 66.5 53 9.4 48.8 0
13:34 1017 30.03 846 24.98 19.3 66.7 56 10.3 50.6 0
13:35 1017 30.03 846 24.98 19.4 66.8 50 8.8 47.8 0
13:36 1017 30.03 846 24.98 19.2 66.5 54 9.7 49.5 0
13:37 1017 30.03 846 24.98 19.1 66.3 54 9.7 49.5 0
13:38 1017 30.03 846 24.98 19.1 66.4 55 9.8 49.7 0
13:39 1017 30.03 846 24.98 19.1 66.3 50 8.4 47.1 0
13:40 1017 30.03 846 24.98 18.9 65.9 49 8.1 46.5 0
13:41 1017 30.03 846 24.98 18.5 65.4 50 8.2 46.7 0
13:42 1017 30.03 846 24.98 18.3 64.9 54 9 48.3 0
13:43 1017 30.03 846 24.98 18.1 64.5 55 9.1 48.4 0
13:44 1017 30.03 846 24.98 17.9 64.2 55 8.7 47.7 0
13:45 1017 30.03 846 24.98 17.8 64 57 9.3 48.7 0
13:46 1017 30.03 846 24.98 18 64.4 59 10 50 0
13:47 1017 30.03 846 24.98 18.3 64.9 56 9.5 49.1 0
13:48 1017 30.03 846 24.98 18.7 65.6 53 9.1 48.4 0
13:49 1017 30.03 846 24.98 18.9 66.1 60 11 51.8 0
13:50 1017 30.03 846 24.98 19.3 66.7 55 10.1 50.1 0
13:51 1017 30.03 846 24.98 19.5 67 54 10.1 50.2 0
13:52 1017 30.03 846 24.98 19.6 67.2 46 7.9 46.2 0
13:53 1017 30.03 846 24.98 19.5 67.2 52 9.6 49.2 0
13:54 1017 30.03 846 24.98 19.5 67 54 10.1 50.2 0
13:55 1017 30.03 846 24.98 19.5 67 48 8.4 47 0
13:56 1017 30.03 846 24.98 19.4 66.9 49 8.5 47.4 0
13:57 1017 30.03 846 24.98 19.4 66.8 58 11 51.7 0
13:58 1017 30.03 846 24.98 19.4 67 53 9.6 49.4 0
13:59 1017 30.03 846 24.98 19.4 67 50 8.8 47.9 0
14:00 1017 30.03 846 24.98 19.4 66.8 51 9 48.1 0
14:01 1017 30.03 846 24.98 19.3 66.8 55 10.1 50.1 0
14:02 1017 30.03 846 24.98 19.3 66.8 52 9.5 49 0
14:03 1017 30.03 846 24.98 19.4 66.9 48 8.2 46.7 0
14:04 1017 30.03 846 24.98 19.3 66.8 48 8.1 46.6 0
14:05 1017 30.03 846 24.98 19.2 66.5 57 10.7 51.2 0
14:06 1017 30.03 846 24.98 19.2 66.5 51 9.1 48.3 0
14:07 1017 30.03 846 24.98 19.2 66.5 49 8.2 46.8 0
14:08 1017 30.03 846 24.98 19 66.3 58 10.7 51.3 0
14:09 1017 30.03 846 24.98 19.1 66.4 46 7.4 45.4 0
14:10 1017 30.03 846 24.98 19.1 66.4 49 8.2 46.8 0
14:11 1017 30.03 846 24.98 19.1 66.4 53 9.5 49.1 0
14:12 1017 30.03 846 24.98 19.1 66.3 47 7.6 45.6 0
14:13 1017 30.03 846 24.98 18.9 66 46 7.2 44.9 0
14:14 1017 30.03 846 24.98 18.8 65.8 53 9.2 48.6 0
14:15 1017 30.03 846 24.98 18.7 65.6 57 10.2 50.3 0
14:16 1017 30.03 846 24.98 18.7 65.7 56 9.8 49.7 0
14:17 1017 30.03 846 24.98 18.6 65.6 50 8 46.4 0
14:18 1017 30.03 846 24.98 18.7 65.6 50 8.3 46.9 0
14:19 1017 30.03 846 24.98 18.7 65.6 50 8.2 46.7 0
14:20 1017 30.03 846 24.98 18.5 65.3 53 8.9 48 0
14:21 1017 30.03 846 24.98 18.5 65.2 52 8.6 47.5 0
14:22 1017 30.03 846 24.98 18.5 65.2 51 8.4 47.1 0
14:23 1017 30.03 846 24.98 18.5 65.2 54 9.2 48.5 0
14:24 1017 30.03 846 24.98 18.4 65.2 58 10 50 0
14:25 1017 30.03 846 24.98 18.5 65.4 53 8.8 47.8 0
14:26 1017 30.03 846 24.98 18.6 65.5 52 8.7 47.7 0
14:27 1017 30.03 846 24.98 18.8 65.9 55 9.8 49.7 0
14:28 1017 30.03 846 24.98 19 66.1 52 9 48.3 0
14:29 1017 30.03 846 24.98 18.9 66.1 56 10 50 0
14:30 1017 30.03 846 24.98 19 66.3 57 10.5 50.8 0
14:31 1017 30.03 846 24.98 19.2 66.5 54 9.8 49.7 0
14:32 1017 30.03 846 24.98 19.2 66.5 53 9.4 49 0
14:33 1017 30.03 846 24.98 19 66.2 49 8.3 46.9 0
14:34 1017 30.03 846 24.98 18.8 65.8 54 9.5 49 0
14:35 1017 30.03 846 24.98 18.6 65.5 51 8.3 46.9 0
14:36 1017 30.03 846 24.98 18.4 65 50 7.9 46.1 0
14:37 1017 30.03 846 24.98 18.2 64.7 53 8.5 47.4 0
14:38 1017 30.03 846 24.98 18 64.4 54 8.7 47.7 0
14:39 1017 30.03 846 24.98 17.8 64 54 8.4 47.2 0
14:40 1017 30.03 846 24.98 17.7 63.8 56 8.9 48 0
14:41 1017 30.03 846 24.98 17.5 63.5 54 8.3 46.9 0
14:42 1017 30.03 846 24.98 17.4 63.3 56 8.6 47.5 0
14:43 1017 30.03 846 24.98 17.3 63.1 56 8.6 47.4 0
14:44 1017 30.03 846 24.98 17.2 63 56 8.4 47.2 0
14:45 1017 30.03 846 24.98 17.1 62.9 53 7.6 45.6 0
14:46 1017 30.03 846 24.98 17.1 62.9 53 7.6 45.7 0
14:47 1017 30.03 846 24.98 17.2 62.9 56 8.4 47.1 0
14:48 1017 30.03 846 24.98 17.2 63 57 8.6 47.5 0
14:49 1017 30.03 846 24.98 17.3 63.1 55 8.3 46.9 0
14:50 1017 30.03 846 24.98 17.2 63 57 8.6 47.5 0
14:51 1017 30.03 846 24.98 17.2 62.9 55 8.3 46.9 0
14:52 1017 30.03 846 24.98 17.1 62.7 52 7.4 45.3 0
14:53 1017 30.03 846 24.98 17 62.5 53 7.3 45.2 0
14:54 1017 30.03 846 24.98 16.8 62.2 55 7.8 46.1 0
14:55 1016 30 846 24.98 16.7 62 55 7.8 46 0
14:56 1016 30 846 24.98 16.6 61.8 53 6.9 44.5 0
14:57 1016 30 846 24.98 16.5 61.7 54 7.3 45.2 0
14:58 1017 30.03 846 24.98 16.5 61.6 54 7.2 44.9 0
14:59 1017 30.03 846 24.98 16.4 61.5 54 7.3 45.1 0
15:00 1017 30.03 846 24.98 16.3 61.4 55 7.3 45.1 0
15:01 1017 30.03 846 24.98 16.3 61.3 55 7.2 44.9 0
15:02 1017 30.03 846 24.98 16.3 61.3 56 7.5 45.5 0
15:03 1017 30.03 846 24.98 16.2 61.1 53 6.8 44.2 0
15:04 1017 30.03 846 24.98 16.1 61 55 7.3 45.1 0
15:05 1017 30.03 846 24.98 16 60.9 57 7.7 45.8 0
15:06 1017 30.03 846 24.98 15.9 60.6 56 7.1 44.7 0
15:07 1017 30.03 846 24.98 15.7 60.3 53 6.2 43.2 0
15:08 1017 30.03 846 24.98 15.7 60.2 52 5.9 42.7 0
15:09 1017 30.03 846 24.98 15.5 59.9 53 6 42.9 0
15:10 1017 30.03 847 25.01 15.4 59.7 57 7 44.5 0
15:11 1018 30.06 847 25.01 15.2 59.4 55 6.3 43.3 0
15:12 1018 30.06 847 25.01 15 59.1 55 6.2 43.2 0
15:13 1018 30.06 847 25.01 14.9 58.7 57 6.6 43.9 0
15:14 1018 30.06 847 25.01 14.7 58.4 56 5.9 42.7 0
15:15 1018 30.06 848 25.04 14.5 58.1 56 6 42.8 0
15:16 1019 30.09 848 25.04 14.4 57.9 57 6 42.8 0
15:17 1019 30.09 848 25.04 14.3 57.7 57 6 42.7 0
15:18 1019 30.09 848 25.04 14.2 57.6 58 6.3 43.3 0
15:19 1019 30.09 848 25.04 13.9 57.1 65 7.6 45.6 0
15:20 1019 30.09 848 25.04 13.4 56.2 65 7.1 44.7 0
15:21 1019 30.09 848 25.04 12.9 55.3 65 6.6 43.8 0
15:22 1019 30.09 848 25.04 12.5 54.5 68 6.7 44 0
15:23 1018 30.06 848 25.04 12 53.6 71 6.9 44.3 0
15:24 1019 30.09 848 25.04 11.6 52.9 71 6.6 43.8 0
15:25 1019 30.09 848 25.04 11.3 52.3 72 6.4 43.6 0
15:26 1019 30.09 848 25.04 11 51.8 73 6.4 43.6 0
15:27 1019 30.09 848 25.04 10.8 51.5 74 6.4 43.6 0
15:28 1019 30.09 848 25.04 10.6 51.1 75 6.3 43.3 0
15:29 1019 30.09 848 25.04 10.5 51 77 6.6 43.9 0
15:30 1019 30.09 848 25.04 10.6 51 76 6.5 43.8 0
15:31 1019 30.09 848 25.04 10.7 51.3 78 7 44.6 0
15:32 1019 30.09 848 25.04 10.7 51.3 79 7.2 44.9 0
15:33 1019 30.09 848 25.04 10.8 51.5 81 7.6 45.8 0
15:34 1019 30.09 848 25.04 11 51.8 81 7.9 46.2 0
15:35 1019 30.09 848 25.04 11.3 52.3 77 7.4 45.3 0
15:36 1019 30.09 848 25.04 11.4 52.6 77 7.5 45.5 0
15:37 1019 30.09 848 25.04 11.4 52.5 79 7.9 46.3 0
15:38 1019 30.09 848 25.04 11.4 52.5 79 8 46.3 0
15:39 1019 30.09 848 25.04 11.4 52.5 77 7.5 45.4 0
15:40 1019 30.09 848 25.04 11.5 52.7 81 8.4 47.1 0
15:41 1019 30.09 848 25.04 11.7 53 78 8 46.4 0
15:42 1019 30.09 848 25.04 11.9 53.3 76 7.7 45.9 0
15:43 1019 30.09 848 25.04 12 53.6 77 8.2 46.8 0
15:44 1019 30.09 848 25.04 12.2 53.9 74 7.7 45.8 0
15:45 1019 30.09 848 25.04 12.2 54 78 8.6 47.5 0
15:46 1019 30.09 849 25.07 12.3 54.2 77 8.5 47.3 0
15:47 1019 30.09 849 25.07 12.4 54.2 78 8.6 47.5 0
15:48 1019 30.09 849 25.07 12.4 54.4 75 8.2 46.7 0
15:49 1019 30.09 849 25.07 12.4 54.4 73 7.7 45.9 0
15:50 1019 30.09 849 25.07 12.4 54.3 74 7.9 46.2 0
15:51 1019 30.09 849 25.07 12.3 54.2 75 8 46.5 0
15:52 1019 30.09 849 25.07 12.3 54.1 76 8.2 46.8 0
15:53 1019 30.09 849 25.07 12.3 54.1 74 7.7 45.9 0
15:54 1019 30.09 849 25.07 12.3 54.2 77 8.3 47 0
15:55 1019 30.09 849 25.07 12.4 54.3 72 7.5 45.6 0
15:56 1019 30.09 849 25.07 12.4 54.3 72 7.6 45.7 0
15:57 1019 30.09 849 25.07 12.5 54.4 74 8 46.3 0
15:58 1019 30.09 849 25.07 12.4 54.4 72 7.5 45.5 0
15:59 1019 30.09 849 25.07 12.4 54.3 73 7.7 45.8 0
16:00 1020 30.12 849 25.07 12.3 54.2 75 8.1 46.5 0
16:01 1020 30.12 849 25.07 12.3 54.2 72 7.4 45.3 0
16:02 1020 30.12 849 25.07 12.3 54.1 75 8 46.4 0
16:03 1020 30.12 849 25.07 12.3 54.1 75 7.9 46.2 0
16:04 1020 30.12 849 25.07 12.3 54.1 71 7.2 44.9 0
16:05 1020 30.12 849 25.07 12.3 54.1 75 7.9 46.3 0
16:06 1020 30.12 849 25.07 12.3 54.1 76 8.2 46.8 0
16:07 1020 30.12 849 25.07 12.3 54.1 75 8 46.4 0
16:08 1020 30.12 849 25.07 12.4 54.2 76 8.2 46.8 0
16:09 1020 30.12 849 25.07 12.4 54.3 75 8.2 46.7 0
16:10 1020 30.12 849 25.07 12.4 54.2 73 7.6 45.8 0
16:11 1020 30.12 849 25.07 12.3 54.2 74 7.8 46.1 0
16:12 1020 30.12 849 25.07 12.3 54.2 74 7.8 46 0
16:13 1020 30.12 849 25.07 12.3 54.1 78 8.5 47.3 0
16:14 1020 30.12 849 25.07 12.2 54 77 8.3 47 0
16:15 1020 30.12 849 25.07 12.1 53.8 75 7.9 46.2 0
16:16 1020 30.12 849 25.07 12 53.6 77 8.2 46.8 0
16:17 1020 30.12 849 25.07 11.9 53.5 77 8.1 46.5 0
16:18 1020 30.12 849 25.07 11.8 53.3 77 8 46.5 0
16:19 1020 30.12 849 25.07 11.7 53.1 77 7.9 46.2 0
16:20 1020 30.12 849 25.07 11.6 52.8 78 7.9 46.2 0
16:21 1020 30.12 849 25.07 11.5 52.7 78 7.9 46.2 0
16:22 1020 30.12 849 25.07 11.4 52.5 78 7.7 45.9 0
16:23 1020 30.12 850 25.1 11.4 52.5 78 7.7 45.8 0
16:24 1020 30.12 850 25.1 11.3 52.4 79 7.8 46.1 0
16:25 1020 30.12 849 25.07 11.2 52.2 80 7.9 46.2 0
16:26 1020 30.12 849 25.07 11.2 52.2 79 7.7 45.9 0
16:27 1020 30.12 849 25.07 11.2 52.1 79 7.7 45.9 0
16:28 1020 30.12 849 25.07 11.1 52 81 7.9 46.3 0
16:29 1020 30.12 849 25.07 11 51.8 81 7.9 46.3 0
16:30 1020 30.12 849 25.07 10.8 51.5 83 8 46.4 0
16:31 1020 30.12 849 25.07 10.6 51.2 82 7.7 45.8 0
16:32 1020 30.12 849 25.07 10.5 50.9 84 8 46.3 0
16:33 1020 30.12 849 25.07 10.3 50.6 85 7.9 46.2 0
16:34 1020 30.12 850 25.1 10.2 50.3 85 7.8 46 0
16:35 1021 30.15 850 25.1 10 50 86 7.7 45.9 0
16:36 1021 30.15 850 25.1 9.9 49.8 87 7.8 46 0
16:37 1021 30.15 850 25.1 9.8 49.7 87 7.8 46 0
16:38 1021 30.15 850 25.1 9.8 49.6 87 7.7 45.9 0
16:39 1021 30.15 850 25.1 9.7 49.5 88 7.9 46.1 0
16:40 1021 30.15 850 25.1 9.6 49.4 88 7.8 46 0
16:41 1021 30.15 850 25.1 9.6 49.4 88 7.8 46 0
16:42 1021 30.15 850 25.1 9.6 49.3 87 7.6 45.7 0
16:43 1021 30.15 850 25.1 9.7 49.4 87 7.7 45.9 0
16:44 1021 30.15 850 25.1 9.7 49.4 88 7.7 45.9 0
16:45 1021 30.15 850 25.1 9.7 49.5 87 7.7 45.9 0
16:46 1021 30.15 850 25.1 9.8 49.6 87 7.8 46 0
16:47 1021 30.15 850 25.1 9.7 49.5 87 7.7 45.9 0
16:48 1021 30.15 850 25.1 9.8 49.6 87 7.7 45.8 0
16:49 1021 30.15 850 25.1 9.9 49.8 87 7.8 46.1 0
16:50 1021 30.15 850 25.1 10 50 87 8 46.4 0
16:51 1021 30.15 850 25.1 10.1 50.1 88 8.2 46.7 0
16:52 1021 30.15 850 25.1 10.2 50.4 88 8.3 46.9 0
16:53 1021 30.15 850 25.1 10.4 50.6 87 8.3 47 0
16:54 1021 30.15 850 25.1 10.6 51 85 8.1 46.6 0
16:55 1021 30.15 850 25.1 10.7 51.2 87 8.7 47.6 0
16:56 1021 30.15 850 25.1 10.8 51.5 85 8.5 47.2 0
16:57 1020 30.12 850 25.1 10.9 51.7 85 8.5 47.2 0
16:58 1021 30.15 850 25.1 11 51.9 87 9 48.2 0
16:59 1021 30.15 850 25.1 11.2 52.2 84 8.6 47.6 0
17:00 1020 30.12 850 25.1 11.4 52.5 84 8.7 47.7 0
17:01 1020 30.12 850 25.1 11.5 52.7 82 8.5 47.2 0
17:02 1020 30.12 850 25.1 11.6 52.8 82 8.6 47.6 0
17:03 1021 30.15 850 25.1 11.6 52.8 79 8.1 46.6 0
17:04 1020 30.12 850 25.1 11.7 53.1 80 8.4 47.1 0
17:05 1020 30.12 850 25.1 11.8 53.2 82 8.8 47.9 0
17:06 1020 30.12 850 25.1 11.8 53.2 80 8.5 47.4 0
17:07 1020 30.12 850 25.1 11.9 53.5 80 8.7 47.6 0
17:08 1020 30.12 849 25.07 12.2 53.9 77 8.3 47 0
17:09 1020 30.12 849 25.07 12.4 54.3 76 8.4 47.1 0
17:10 1020 30.12 849 25.07 12.6 54.6 74 8.1 46.5 0
17:11 1020 30.12 849 25.07 12.7 54.8 76 8.6 47.4 0
17:12 1020 30.12 849 25.07 12.8 55 81 9.6 49.3 0
17:13 1020 30.12 849 25.07 13 55.4 77 9.2 48.5 0
17:14 1020 30.12 849 25.07 13.1 55.5 76 8.9 48 0
17:15 1020 30.12 849 25.07 13 55.3 74 8.6 47.4 0
17:16 1020 30.12 849 25.07 13.1 55.5 73 8.4 47.1 0
17:17 1020 30.12 849 25.07 13.3 56 71 8.2 46.7 0
17:18 1020 30.12 849 25.07 13.6 56.5 73 8.9 48 0
17:19 1020 30.12 849 25.07 13.9 57 73 9.2 48.6 0
17:20 1020 30.12 849 25.07 14 57.3 74 9.5 49.2 0
17:21 1020 30.12 849 25.07 14 57.2 69 8.5 47.2 0
17:22 1020 30.12 849 25.07 13.9 57 72 9 48.3 0
17:23 1020 30.12 849 25.07 13.8 56.8 68 8 46.3 0
17:24 1020 30.12 849 25.07 13.7 56.7 69 8.2 46.8 0
17:25 1020 30.12 849 25.07 13.6 56.5 73 9 48.2 0
17:26 1020 30.12 849 25.07 13.6 56.5 66 7.4 45.3 0
17:27 1019 30.09 849 25.07 13.5 56.3 66 7.2 45 0
17:28 1019 30.09 849 25.07 13.3 56 68 7.6 45.6 0
17:29 1019 30.09 849 25.07 13.2 55.7 69 7.6 45.7 0
17:30 1019 30.09 848 25.04 13 55.3 73 8.3 46.9 0
17:31 1019 30.09 848 25.04 12.8 55 74 8.3 46.9 0
17:32 1019 30.09 848 25.04 12.6 54.7 80 9.3 48.7 0
17:33 1019 30.09 848 25.04 12.5 54.5 77 8.6 47.5 0
17:34 1019 30.09 848 25.04 12.4 54.4 78 8.8 47.8 0
17:35 1019 30.09 849 25.07 12.4 54.3 79 8.8 47.8 0
17:36 1019 30.09 849 25.07 12.4 54.4 79 8.9 47.9 0
17:37 1019 30.09 849 25.07 12.5 54.5 76 8.4 47.1 0
17:38 1019 30.09 849 25.07 12.5 54.6 78 8.9 48 0
17:39 1019 30.09 848 25.04 12.5 54.6 75 8.3 47 0
17:40 1019 30.09 848 25.04 12.5 54.4 74 7.9 46.3 0
17:41 1019 30.09 848 25.04 12.4 54.3 78 8.7 47.7 0
17:42 1019 30.09 848 25.04 12.4 54.2 78 8.6 47.5 0
17:43 1019 30.09 848 25.04 12.3 54.2 77 8.5 47.3 0
17:44 1019 30.09 848 25.04 12.3 54.2 78 8.5 47.4 0
17:45 1019 30.09 848 25.04 12.3 54.2 77 8.4 47.1 0
17:46 1019 30.09 848 25.04 12.2 54 77 8.4 47.1 0
17:47 1019 30.09 848 25.04 12.3 54.1 80 9 48.2 0
17:48 1019 30.09 848 25.04 12.3 54.1 77 8.4 47.1 0
17:49 1019 30.09 848 25.04 12.2 54 77 8.3 46.9 0
17:50 1019 30.09 848 25.04 12.2 53.9 75 8 46.3 0
17:51 1019 30.09 848 25.04 12.1 53.7 79 8.7 47.6 0
17:52 1019 30.09 848 25.04 12.1 53.7 76 8 46.5 0
17:53 1019 30.09 848 25.04 12.1 53.7 76 8 46.4 0
17:54 1019 30.09 848 25.04 12 53.7 78 8.4 47.1 0
17:55 1019 30.09 848 25.04 12.1 53.7 76 7.9 46.3 0
17:56 1019 30.09 849 25.07 12.1 53.7 76 8 46.5 0
17:57 1019 30.09 848 25.04 12 53.6 76 8 46.4 0
17:58 1019 30.09 849 25.07 12 53.6 75 7.7 45.9 0
17:59 1019 30.09 849 25.07 12 53.6 76 7.9 46.2 0
18:00 1019 30.09 848 25.04 12 53.7 77 8.2 46.8 0
18:01 1019 30.09 848 25.04 12 53.7 76 8 46.5 0
18:02 1019 30.09 848 25.04 12.1 53.7 76 7.9 46.3 0
18:03 1019 30.09 848 25.04 12 53.7 75 7.8 46 0
18:04 1019 30.09 848 25.04 12 53.6 75 7.8 46 0
18:05 1019 30.09 849 25.07 12 53.7 76 8 46.4 0
18:06 1019 30.09 849 25.07 12.1 53.7 78 8.3 46.9 0
18:07 1019 30.09 849 25.07 12.1 53.8 77 8.3 46.9 0
18:08 1019 30.09 849 25.07 12.1 53.7 79 8.6 47.5 0
18:09 1019 30.09 849 25.07 12.1 53.7 76 8 46.3 0
18:10 1019 30.09 849 25.07 12.1 53.8 77 8.2 46.8 0
18:11 1019 30.09 849 25.07 12.1 53.9 78 8.4 47.2 0
18:12 1019 30.09 849 25.07 12.1 53.9 77 8.3 46.9 0
18:13 1020 30.12 849 25.07 12.2 53.9 79 8.6 47.4 0
18:14 1020 30.12 849 25.07 12.2 53.9 80 8.8 47.8 0
18:15 1019 30.09 849 25.07 12.2 53.9 81 8.9 48.1 0
18:16 1019 30.09 849 25.07 12.1 53.8 79 8.6 47.5 0
18:17 1019 30.09 849 25.07 12 53.7 80 8.7 47.6 0
18:18 1019 30.09 849 25.07 12.1 53.7 79 8.6 47.4 0
18:19 1019 30.09 849 25.07 12 53.6 78 8.4 47.1 0
18:20 1019 30.09 849 25.07 12.1 53.7 81 8.9 48 0
18:21 1019 30.09 849 25.07 12 53.6 82 9 48.2 0
18:22 1019 30.09 849 25.07 12 53.6 80 8.6 47.5 0
18:23 1019 30.09 849 25.07 12 53.5 78 8.3 47 0
18:24 1019 30.09 849 25.07 12 53.5 79 8.5 47.3 0
18:25 1019 30.09 849 25.07 12 53.6 79 8.5 47.3 0
18:26 1019 30.09 849 25.07 12 53.6 81 8.8 47.8 0
18:27 1019 30.09 849 25.07 12 53.6 79 8.5 47.3 0
18:28 1019 30.09 849 25.07 12 53.7 81 8.9 48.1 0
18:29 1019 30.09 849 25.07 12 53.7 78 8.4 47.1 0
18:30 1020 30.12 849 25.07 12.1 53.7 80 8.7 47.7 0
18:31 1020 30.12 849 25.07 12.1 53.7 78 8.4 47.2 0
18:32 1020 30.12 849 25.07 12.1 53.8 80 8.8 47.9 0
18:33 1020 30.12 849 25.07 12.1 53.7 78 8.4 47.1 0
18:34 1020 30.12 849 25.07 12.1 53.7 79 8.5 47.2 0
18:35 1020 30.12 849 25.07 12 53.6 80 8.8 47.8 0
18:36 1020 30.12 849 25.07 12 53.6 81 8.9 48 0
18:37 1020 30.12 849 25.07 11.9 53.5 82 9 48.1 0
18:38 1020 30.12 849 25.07 11.8 53.3 82 8.9 48 0
18:39 1020 30.12 849 25.07 11.8 53.2 81 8.7 47.6 0
18:40 1020 30.12 849 25.07 11.7 53.1 82 8.8 47.8 0
18:41 1020 30.12 849 25.07 11.7 53 82 8.8 47.9 0
18:42 1020 30.12 849 25.07 11.6 52.9 82 8.7 47.6 0
18:43 1020 30.12 849 25.07 11.6 52.9 80 8.3 47 0
18:44 1020 30.12 849 25.07 11.6 52.8 81 8.5 47.4 0
18:45 1020 30.12 849 25.07 11.6 52.8 81 8.4 47 0
18:46 1020 30.12 849 25.07 11.5 52.7 83 8.7 47.7 0
18:47 1020 30.12 849 25.07 11.5 52.7 82 8.6 47.5 0
18:48 1020 30.12 849 25.07 11.5 52.6 82 8.6 47.4 0
18:49 1020 30.12 849 25.07 11.5 52.6 83 8.7 47.6 0
18:50 1020 30.12 849 25.07 11.4 52.6 84 8.7 47.7 0
18:51 1020 30.12 849 25.07 11.3 52.4 83 8.5 47.3 0
18:52 1020 30.12 849 25.07 11.3 52.4 84 8.7 47.7 0
18:53 1020 30.12 849 25.07 11.2 52.2 84 8.6 47.5 0
18:54 1020 30.12 849 25.07 11.2 52.1 85 8.7 47.6 0
18:55 1020 30.12 849 25.07 11.1 52 84 8.6 47.4 0
18:56 1020 30.12 849 25.07 11.1 51.9 86 8.8 47.8 0
18:57 1020 30.12 849 25.07 11 51.9 86 8.8 47.9 0
18:58 1020 30.12 849 25.07 11 51.8 87 9 48.1 0
18:59 1020 30.12 849 25.07 11 51.8 87 9 48.1 0
19:00 1020 30.12 849 25.07 11 51.7 88 9 48.2 0
19:01 1020 30.12 849 25.07 11 51.7 89 9.3 48.7 0
19:02 1020 30.12 850 25.1 11 51.7 90 9.5 49 0
19:03 1020 30.12 850 25.1 10.9 51.6 91 9.5 49.2 0
19:04 1020 30.12 850 25.1 10.9 51.5 92 9.7 49.4 0
19:05 1020 30.12 850 25.1 10.8 51.4 92 9.6 49.3 0
19:06 1020 30.12 850 25.1 10.7 51.3 93 9.6 49.2 0
19:07 1020 30.12 850 25.1 10.7 51.3 93 9.6 49.3 0
19:08 1020 30.12 850 25.1 10.7 51.3 94 9.7 49.5 0
19:09 1020 30.12 850 25.1 10.7 51.2 93 9.6 49.3 0
19:10 1020 30.12 850 25.1 10.6 51 94 9.6 49.3 0
19:11 1021 30.15 850 25.1 10.6 51 93 9.5 49.2 0
19:12 1021 30.15 850 25.1 10.5 50.8 93 9.3 48.8 0
19:13 1021 30.15 850 25.1 10.4 50.6 93 9.3 48.7 0
19:14 1021 30.15 850 25.1 10.3 50.6 93 9.3 48.7 0
19:15 1021 30.15 850 25.1 10.3 50.5 93 9.3 48.7 0
19:16 1021 30.15 850 25.1 10.2 50.4 94 9.3 48.8 0
19:17 1021 30.15 850 25.1 10.2 50.4 95 9.4 48.9 0
19:18 1021 30.15 850 25.1 10.2 50.3 95 9.4 48.9 0
19:19 1021 30.15 850 25.1 10.1 50.2 95 9.3 48.7 0
19:20 1021 30.15 850 25.1 10.1 50.2 95 9.3 48.7 0
19:21 1021 30.15 850 25.1 10.1 50.1 95 9.2 48.6 0
19:22 1021 30.15 850 25.1 10 50 95 9.2 48.5 0
19:23 1021 30.15 850 25.1 10 49.9 94 9 48.3 0
19:24 1021 30.15 850 25.1 9.9 49.8 94 8.9 48.1 0
19:25 1021 30.15 850 25.1 9.8 49.7 93 8.8 47.8 0
19:26 1021 30.15 850 25.1 9.8 49.7 94 8.9 47.9 0
19:27 1021 30.15 850 25.1 9.8 49.6 94 8.8 47.9 0
19:28 1021 30.15 850 25.1 9.7 49.5 94 8.8 47.8 0
19:29 1021 30.15 850 25.1 9.7 49.5 94 8.7 47.7 0
19:30 1021 30.15 850 25.1 9.7 49.5 94 8.7 47.7 0
19:31 1021 30.15 850 25.1 9.7 49.4 94 8.7 47.7 0
19:32 1021 30.15 850 25.1 9.7 49.4 94 8.7 47.7 0
19:33 1021 30.15 850 25.1 9.7 49.4 94 8.7 47.7 0
19:34 1021 30.15 850 25.1 9.7 49.4 94 8.8 47.8 0
19:35 1021 30.15 850 25.1 9.6 49.3 94 8.8 47.8 0
19:36 1021 30.15 850 25.1 9.6 49.3 94 8.6 47.6 0
19:37 1021 30.15 850 25.1 9.6 49.3 93 8.6 47.4 0
19:38 1021 30.15 850 25.1 9.6 49.2 94 8.6 47.5 0
19:39 1021 30.15 850 25.1 9.6 49.3 94 8.6 47.5 0
19:40 1021 30.15 850 25.1 9.6 49.2 94 8.6 47.4 0
19:41 1021 30.15 850 25.1 9.5 49.2 94 8.6 47.4 0
19:42 1021 30.15 850 25.1 9.5 49.1 94 8.5 47.4 0
19:43 1021 30.15 850 25.1 9.5 49.1 93 8.5 47.3 0
19:44 1021 30.15 850 25.1 9.5 49.1 93 8.4 47.2 0
19:45 1021 30.15 850 25.1 9.5 49.1 93 8.5 47.2 0
19:46 1021 30.15 850 25.1 9.5 49.1 93 8.4 47.1 0
19:47 1021 30.15 850 25.1 9.5 49.1 93 8.4 47.2 0
19:48 1021 30.15 850 25.1 9.5 49.1 93 8.4 47.1 0
19:49 1021 30.15 850 25.1 9.5 49.1 93 8.4 47.1 0
19:50 1021 30.15 850 25.1 9.5 49.1 93 8.4 47.1 0
19:51 1021 30.15 850 25.1 9.5 49 92 8.3 47 0
19:52 1021 30.15 850 25.1 9.5 49.1 93 8.4 47 0
19:53 1021 30.15 850 25.1 9.5 49.1 92 8.3 47 0
19:54 1021 30.15 850 25.1 9.5 49.1 92 8.3 47 0
19:55 1021 30.15 850 25.1 9.5 49 92 8.3 46.9 0
19:56 1021 30.15 850 25.1 9.5 49.1 93 8.3 47 0
19:57 1021 30.15 850 25.1 9.5 49 92 8.3 46.9 0
19:58 1021 30.15 850 25.1 9.5 49 92 8.2 46.8 0
19:59 1021 30.15 850 25.1 9.5 49.1 91 8.2 46.7 0
20:00 1021 30.15 850 25.1 9.5 49.1 92 8.2 46.7 0
20:01 1021 30.15 850 25.1 9.5 49.1 92 8.2 46.7 0
20:02 1021 30.15 850 25.1 9.5 49.1 92 8.2 46.7 0
20:03 1021 30.15 850 25.1 9.4 49 91 8.1 46.6 0
20:04 1021 30.15 850 25.1 9.4 49 91 8.1 46.6 0
20:05 1021 30.15 850 25.1 9.4 49 92 8.1 46.6 0
20:06 1021 30.15 850 25.1 9.4 48.9 91 8.1 46.5 0
20:07 1021 30.15 850 25.1 9.4 48.9 91 8 46.4 0
20:08 1021 30.15 850 25.1 9.4 48.9 92 8.1 46.5 0
20:09 1021 30.15 850 25.1 9.3 48.8 92 8.1 46.6 0
20:10 1021 30.15 850 25.1 9.4 48.8 92 8.2 46.7 0
20:11 1021 30.15 850 25.1 9.3 48.8 92 8.1 46.5 0
20:12 1021 30.15 850 25.1 9.3 48.7 92 8.1 46.6 0
20:13 1021 30.15 850 25.1 9.3 48.7 92 8.1 46.6 0
20:14 1021 30.15 850 25.1 9.3 48.7 93 8.1 46.7 0
20:15 1021 30.15 850 25.1 9.3 48.7 93 8.2 46.7 0
20:16 1021 30.15 850 25.1 9.2 48.6 93 8.1 46.7 0
20:17 1021 30.15 850 25.1 9.2 48.6 93 8.2 46.8 0
20:18 1021 30.15 850 25.1 9.2 48.5 93 8.2 46.7 0
20:19 1021 30.15 850 25.1 9.2 48.5 94 8.2 46.8 0
20:20 1021 30.15 850 25.1 9.2 48.5 94 8.3 46.9 0
20:21 1021 30.15 850 25.1 9.2 48.5 94 8.3 46.9 0
20:22 1021 30.15 850 25.1 9.1 48.5 94 8.3 46.9 0
20:23 1021 30.15 851 25.13 9.1 48.4 95 8.3 46.9 0
20:24 1021 30.15 851 25.13 9.2 48.5 95 8.4 47 0
20:25 1021 30.15 851 25.13 9.2 48.5 95 8.3 47 0
20:26 1021 30.15 851 25.13 9.2 48.5 95 8.3 47 0
20:27 1021 30.15 851 25.13 9.2 48.5 94 8.3 46.9 0
20:28 1021 30.15 851 25.13 9.1 48.4 94 8.3 46.9 0
20:29 1021 30.15 851 25.13 9.2 48.5 95 8.3 47 0
20:30 1021 30.15 851 25.13 9.2 48.5 95 8.3 47 0
20:31 1021 30.15 851 25.13 9.2 48.5 94 8.2 46.8 0
20:32 1021 30.15 851 25.13 9.1 48.4 94 8.2 46.8 0
20:33 1021 30.15 851 25.13 9.1 48.5 94 8.3 46.9 0
20:34 1021 30.15 851 25.13 9.1 48.4 93 8 46.5 0
20:35 1021 30.15 851 25.13 9.1 48.3 88 7.2 45 0
20:36 1021 30.15 851 25.13 9.1 48.4 87 7.1 44.7 0
20:37 1021 30.15 851 25.13 9.1 48.4 85 6.8 44.2 0
20:38 1021 30.15 851 25.13 9.1 48.4 86 6.9 44.4 0
20:39 1022 30.18 851 25.13 9.1 48.4 85 6.8 44.3 0
20:40 1022 30.18 851 25.13 9 48.3 87 7 44.7 0
20:41 1022 30.18 851 25.13 9 48.2 86 6.8 44.2 0
20:42 1022 30.18 851 25.13 9 48.1 88 7 44.7 0
20:43 1022 30.18 851 25.13 8.9 48 89 7.1 44.8 0
20:44 1022 30.18 851 25.13 8.9 47.9 88 7.1 44.7 0
20:45 1022 30.18 851 25.13 8.8 47.9 88 6.9 44.4 0
20:46 1022 30.18 851 25.13 8.8 47.9 89 7.1 44.7 0
20:47 1022 30.18 851 25.13 8.8 47.8 89 7.1 44.7 0
20:48 1022 30.18 851 25.13 8.7 47.7 89 7 44.6 0
20:49 1022 30.18 851 25.13 8.7 47.6 90 7.1 44.7 0
20:50 1022 30.18 851 25.13 8.6 47.6 90 7.1 44.8 0
20:51 1022 30.18 851 25.13 8.6 47.5 89 6.9 44.4 0
20:52 1022 30.18 851 25.13 8.6 47.5 90 7 44.6 0
20:53 1022 30.18 851 25.13 8.5 47.4 89 6.9 44.4 0
20:54 1022 30.18 851 25.13 8.5 47.3 90 6.9 44.5 0
20:55 1022 30.18 851 25.13 8.5 47.3 89 6.8 44.3 0
20:56 1022 30.18 851 25.13 8.5 47.2 90 6.9 44.4 0
20:57 1022 30.18 851 25.13 8.4 47.1 90 6.9 44.3 0
20:58 1022 30.18 851 25.13 8.4 47.2 89 6.8 44.2 0
20:59 1022 30.18 851 25.13 8.4 47.2 90 6.9 44.4 0
21:00 1022 30.18 851 25.13 8.4 47.1 90 6.8 44.2 0
21:01 1022 30.18 851 25.13 8.4 47.1 90 6.9 44.4 0
21:02 1022 30.18 851 25.13 8.4 47 90 6.8 44.3 0
21:03 1022 30.18 851 25.13 8.4 47 89 6.7 44 0
21:04 1022 30.18 851 25.13 8.3 47 89 6.6 43.9 0
21:05 1022 30.18 851 25.13 8.3 47 89 6.6 43.9 0
21:06 1022 30.18 851 25.13 8.4 47 89 6.7 44.1 0
21:07 1022 30.18 851 25.13 8.3 47 88 6.5 43.7 0
21:08 1022 30.18 851 25.13 8.3 47 90 6.7 44.1 0
21:09 1022 30.18 851 25.13 8.3 47 90 6.8 44.2 0
21:10 1022 30.18 851 25.13 8.3 46.9 89 6.7 44 0
21:11 1022 30.18 851 25.13 8.3 46.9 90 6.8 44.2 0
21:12 1022 30.18 851 25.13 8.3 46.9 90 6.8 44.2 0
21:13 1022 30.18 851 25.13 8.3 46.9 90 6.8 44.2 0
21:14 1022 30.18 851 25.13 8.3 46.9 90 6.7 44.1 0
21:15 1022 30.18 851 25.13 8.2 46.8 90 6.8 44.2 0
21:16 1022 30.18 851 25.13 8.3 46.9 90 6.8 44.2 0
21:17 1022 30.18 851 25.13 8.2 46.8 91 6.8 44.2 0
21:18 1022 30.18 851 25.13 8.2 46.7 91 6.8 44.2 0
21:19 1022 30.18 851 25.13 8.2 46.7 91 6.9 44.4 0
21:20 1022 30.18 851 25.13 8.2 46.7 92 6.9 44.5 0
21:21 1022 30.18 851 25.13 8.2 46.7 92 7 44.6 0
21:22 1022 30.18 851 25.13 8.2 46.7 92 7 44.5 0
21:23 1022 30.18 851 25.13 8.2 46.7 92 7 44.6 0
21:24 1022 30.18 851 25.13 8.2 46.7 92 6.9 44.5 0
21:25 1022 30.18 851 25.13 8.2 46.7 92 7 44.6 0
21:26 1022 30.18 851 25.13 8.2 46.7 92 7 44.6 0
21:27 1022 30.18 851 25.13 8.2 46.7 93 7 44.6 0
21:28 1022 30.18 851 25.13 8.2 46.7 93 7 44.7 0
21:29 1022 30.18 851 25.13 8.1 46.6 93 7 44.6 0
21:30 1022 30.18 851 25.13 8.2 46.7 93 7.1 44.8 0
21:31 1022 30.18 852 25.16 8.1 46.7 93 7 44.6 0
21:32 1022 30.18 852 25.16 8.2 46.7 93 7.1 44.7 0
21:33 1022 30.18 852 25.16 8.1 46.7 93 7.1 44.7 0
21:34 1022 30.18 852 25.16 8.2 46.7 93 7.1 44.7 0
21:35 1022 30.18 852 25.16 8.2 46.7 93 7.1 44.8 0
21:36 1022 30.18 852 25.16 8.2 46.7 92 6.9 44.4 0
21:37 1022 30.18 852 25.16 8.2 46.7 91 6.8 44.3 0
21:38 1022 30.18 852 25.16 8.2 46.8 91 6.9 44.4 0
21:39 1023 30.21 852 25.16 8.2 46.8 92 7 44.5 0
21:40 1023 30.21 852 25.16 8.3 46.9 92 7 44.6 0
21:41 1023 30.21 852 25.16 8.3 46.9 92 7.1 44.7 0
21:42 1023 30.21 852 25.16 8.2 46.8 92 7 44.6 0
21:43 1023 30.21 852 25.16 8.2 46.8 92 7 44.6 0
21:44 1023 30.21 852 25.16 8.2 46.8 92 7 44.7 0
21:45 1023 30.21 852 25.16 8.2 46.8 92 7 44.6 0
21:46 1023 30.21 852 25.16 8.2 46.8 92 7 44.6 0
21:47 1022 30.18 852 25.16 8.2 46.7 92 6.9 44.4 0
21:48 1022 30.18 852 25.16 8.2 46.8 92 7 44.6 0
21:49 1022 30.18 852 25.16 8.2 46.8 91 6.8 44.2 0
21:50 1022 30.18 852 25.16 8.2 46.7 90 6.7 44 0
21:51 1023 30.21 852 25.16 8.2 46.8 90 6.7 44.1 0
21:52 1023 30.21 852 25.16 8.2 46.8 91 6.8 44.3 0
21:53 1023 30.21 852 25.16 8.2 46.8 90 6.6 43.9 0
21:54 1023 30.21 852 25.16 8.2 46.7 90 6.6 43.9 0
21:55 1023 30.21 852 25.16 8.2 46.8 90 6.6 43.9 0
21:56 1023 30.21 852 25.16 8.2 46.7 89 6.5 43.8 0
21:57 1023 30.21 852 25.16 8.2 46.7 90 6.7 44 0
21:58 1023 30.21 852 25.16 8.2 46.7 90 6.7 44.1 0
21:59 1023 30.21 852 25.16 8.1 46.6 90 6.6 43.9 0
22:00 1023 30.21 852 25.16 8.1 46.6 90 6.6 43.9 0
22:01 1023 30.21 852 25.16 8.1 46.6 90 6.6 43.9 0
22:02 1023 30.21 852 25.16 8.1 46.5 90 6.5 43.8 0
22:03 1023 30.21 852 25.16 8.1 46.5 90 6.6 43.8 0
22:04 1023 30.21 852 25.16 8.1 46.5 91 6.6 43.9 0
22:05 1023 30.21 852 25.16 8.1 46.5 89 6.4 43.5 0
22:06 1023 30.21 852 25.16 8.1 46.6 89 6.4 43.5 0
22:07 1023 30.21 852 25.16 8.2 46.7 90 6.6 43.8 0
22:08 1023 30.21 852 25.16 8.1 46.7 90 6.6 43.9 0
22:09 1023 30.21 852 25.16 8.2 46.7 89 6.5 43.7 0
22:10 1023 30.21 852 25.16 8.1 46.7 90 6.6 43.9 0
22:11 1023 30.21 852 25.16 8.2 46.7 90 6.6 43.9 0
22:12 1023 30.21 852 25.16 8.1 46.6 89 6.5 43.6 0
22:13 1023 30.21 852 25.16 8.1 46.6 90 6.6 43.8 0
22:14 1023 30.21 853 25.19 8.1 46.6 90 6.5 43.7 0
22:15 1023 30.21 853 25.19 8.1 46.6 90 6.6 43.9 0
22:16 1023 30.21 853 25.19 8.1 46.5 91 6.7 44.1 0
22:17 1023 30.21 853 25.19 8.1 46.5 92 6.8 44.3 0
22:18 1023 30.21 853 25.19 8 46.5 92 6.8 44.3 0
22:19 1023 30.21 853 25.19 8 46.4 92 6.8 44.2 0
22:20 1024 30.24 853 25.19 8 46.5 92 6.9 44.4 0
22:21 1023 30.21 853 25.19 8 46.4 92 6.8 44.2 0
22:22 1024 30.24 853 25.19 8 46.4 92 6.8 44.3 0
22:23 1024 30.24 853 25.19 8 46.4 92 6.8 44.3 0
22:24 1024 30.24 853 25.19 8 46.4 92 6.8 44.2 0
22:25 1024 30.24 853 25.19 8 46.4 92 6.8 44.3 0
22:26 1024 30.24 853 25.19 8 46.4 93 6.9 44.4 0
22:27 1024 30.24 853 25.19 8 46.3 92 6.8 44.2 0
22:28 1024 30.24 853 25.19 8 46.3 92 6.8 44.2 0
22:29 1024 30.24 853 25.19 8 46.3 92 6.8 44.2 0
22:30 1024 30.24 853 25.19 8 46.3 92 6.8 44.3 0
22:31 1024 30.24 853 25.19 7.9 46.3 93 6.8 44.3 0
22:32 1024 30.24 853 25.19 7.9 46.2 93 6.8 44.3 0
22:33 1024 30.24 853 25.19 7.9 46.2 93 6.8 44.3 0
22:34 1024 30.24 853 25.19 7.9 46.3 93 6.9 44.3 0
22:35 1024 30.24 853 25.19 7.9 46.3 93 6.9 44.3 0
22:36 1024 30.24 853 25.19 7.9 46.1 93 6.8 44.2 0
22:37 1024 30.24 853 25.19 7.9 46.1 91 6.5 43.7 0
22:38 1024 30.24 853 25.19 7.9 46.2 87 5.9 42.7 0
22:39 1024 30.24 853 25.19 8 46.4 87 6 42.9 0
22:40 1024 30.24 853 25.19 8.1 46.5 89 6.3 43.3 0
22:41 1024 30.24 853 25.19 8 46.4 88 6.1 43 0
22:42 1024 30.24 853 25.19 8 46.4 87 6.1 42.9 0
22:43 1024 30.24 853 25.19 8 46.4 87 6.1 42.9 0
22:44 1024 30.24 853 25.19 8 46.5 86 5.9 42.6 0
22:45 1024 30.24 853 25.19 8 46.5 85 5.7 42.3 0
22:46 1024 30.24 853 25.19 8.1 46.5 85 5.7 42.3 0
22:47 1024 30.24 853 25.19 8 46.5 86 5.8 42.5 0
22:48 1024 30.24 853 25.19 8 46.5 86 5.9 42.6 0
22:49 1024 30.24 853 25.19 8 46.4 86 5.7 42.3 0
22:50 1024 30.24 853 25.19 8 46.3 85 5.7 42.2 0
22:51 1024 30.24 853 25.19 8 46.3 86 5.8 42.5 0
22:52 1024 30.24 853 25.19 7.9 46.2 87 5.9 42.6 0
22:53 1024 30.24 853 25.19 7.9 46.1 88 6 42.7 0
22:54 1024 30.24 853 25.19 7.8 46.1 89 6.1 42.9 0
22:55 1024 30.24 853 25.19 7.7 45.8 89 6.1 42.9 0
22:56 1024 30.24 853 25.19 7.6 45.8 90 6.1 43 0
22:57 1024 30.24 853 25.19 7.6 45.7 91 6.2 43.1 0
22:58 1024 30.24 853 25.19 7.5 45.6 92 6.3 43.3 0
22:59 1024 30.24 853 25.19 7.5 45.5 92 6.3 43.3 0
23:00 1024 30.24 853 25.19 7.5 45.5 92 6.3 43.3 0
23:01 1024 30.24 853 25.19 7.5 45.4 92 6.2 43.2 0
23:02 1024 30.24 853 25.19 7.5 45.4 91 6.1 43 0
23:03 1024 30.24 853 25.19 7.5 45.4 91 6.1 43 0
23:04 1024 30.24 853 25.19 7.5 45.4 92 6.2 43.1 0
23:05 1024 30.24 853 25.19 7.5 45.4 92 6.2 43.2 0
23:06 1024 30.24 853 25.19 7.4 45.4 92 6.2 43.1 0
23:07 1024 30.24 853 25.19 7.4 45.4 92 6.2 43.1 0
23:08 1024 30.24 853 25.19 7.4 45.4 92 6.2 43.1 0
23:09 1024 30.24 853 25.19 7.5 45.4 92 6.2 43.2 0
23:10 1024 30.24 853 25.19 7.4 45.4 91 6.1 43 0
23:11 1024 30.24 853 25.19 7.5 45.4 92 6.2 43.2 0
23:12 1024 30.24 853 25.19 7.4 45.4 92 6.2 43.1 0
23:13 1024 30.24 853 25.19 7.4 45.3 92 6.2 43.1 0
23:14 1024 30.24 853 25.19 7.4 45.4 92 6.3 43.3 0
23:15 1024 30.24 853 25.19 7.4 45.3 93 6.4 43.5 0
23:16 1024 30.24 853 25.19 7.4 45.4 94 6.5 43.6 0
23:17 1024 30.24 853 25.19 7.4 45.3 94 6.5 43.7 0
23:18 1024 30.24 853 25.19 7.4 45.3 94 6.5 43.7 0
23:19 1024 30.24 853 25.19 7.4 45.3 94 6.5 43.8 0
23:20 1024 30.24 853 25.19 7.4 45.4 94 6.6 43.9 0
23:21 1024 30.24 853 25.19 7.4 45.3 94 6.6 43.8 0
23:22 1024 30.24 853 25.19 7.4 45.3 95 6.6 43.8 0
23:23 1024 30.24 853 25.19 7.4 45.3 95 6.6 43.9 0
23:24 1024 30.24 853 25.19 7.4 45.3 95 6.6 43.9 0
23:25 1024 30.24 853 25.19 7.4 45.3 95 6.6 43.9 0
23:26 1024 30.24 853 25.19 7.4 45.3 95 6.6 43.8 0
23:27 1024 30.24 853 25.19 7.4 45.4 95 6.6 43.9 0
23:28 1024 30.24 853 25.19 7.4 45.3 95 6.6 43.9 0
23:29 1024 30.24 853 25.19 7.4 45.3 94 6.5 43.8 0
23:30 1024 30.24 853 25.19 7.4 45.4 94 6.5 43.7 0
23:31 1024 30.24 853 25.19 7.4 45.3 93 6.3 43.3 0
23:32 1024 30.24 853 25.19 7.5 45.4 92 6.3 43.3 0
23:33 1024 30.24 853 25.19 7.5 45.5 90 5.9 42.7 0
23:34 1024 30.24 853 25.19 7.5 45.5 90 5.9 42.7 0
23:35 1024 30.24 853 25.19 7.5 45.5 90 5.9 42.7 0
23:36 1024 30.24 853 25.19 7.5 45.5 87 5.5 41.9 0
23:37 1024 30.24 853 25.19 7.6 45.7 86 5.4 41.7 0
23:38 1024 30.24 853 25.19 7.7 45.9 87 5.7 42.3 0
23:39 1024 30.24 853 25.19 7.6 45.7 89 5.9 42.6 0
23:40 1024 30.24 853 25.19 7.5 45.6 89 5.9 42.6 0
23:41 1024 30.24 853 25.19 7.5 45.5 90 6 42.7 0
23:42 1024 30.24 853 25.19 7.5 45.4 90 6 42.8 0
23:43 1024 30.24 853 25.19 7.4 45.3 90 5.8 42.5 0
23:44 1024 30.24 853 25.19 7.4 45.2 90 5.8 42.5 0
23:45 1024 30.24 853 25.19 7.3 45.2 90 5.9 42.6 0
23:46 1024 30.24 853 25.19 7.3 45.1 91 5.8 42.5 0
23:47 1024 30.24 853 25.19 7.2 45 91 5.8 42.5 0
23:48 1024 30.24 853 25.19 7.2 44.9 91 5.9 42.6 0
23:49 1024 30.24 853 25.19 7.1 44.9 91 5.7 42.3 0
23:50 1024 30.24 853 25.19 7.1 44.8 91 5.7 42.3 0
23:51 1024 30.24 853 25.19 7.2 44.9 91 5.8 42.5 0
23:52 1024 30.24 853 25.19 7.1 44.8 91 5.8 42.4 0
23:53 1024 30.24 853 25.19 7.1 44.8 91 5.8 42.4 0
23:54 1024 30.24 853 25.19 7.1 44.7 91 5.8 42.4 0
23:55 1024 30.24 853 25.19 7.1 44.7 91 5.8 42.4 0
23:56 1024 30.24 853 25.19 7 44.7 91 5.7 42.3 0
23:57 1024 30.24 853 25.19 7 44.6 92 5.8 42.4 0
23:58 1024 30.24 853 25.19 7 44.5 92 5.7 42.3 0
23:59 1024 30.24 853 25.19 7 44.5 92 5.7 42.3 0
24:00 1024 30.24 853 25.19 6.9 44.5 92 5.7 42.2 0